<?xml version='1.0' encoding='UTF-8'?><gpx version="1.1" creator="JPX - https://github.com/jenetics/jpx" xmlns="http://www.topografix.com/GPX/1/1"><trk><trkseg><trkpt lat="52.402951936550004" lon="10.77707186644601"><ele>92.0</ele><time>2026-03-27T14:04:40Z</time></trkpt><trkpt lat="52.402888853380794" lon="10.777119771721502"><ele>92.0</ele><time>2026-03-27T14:04:43Z</time></trkpt><trkpt lat="52.40282399539092" lon="10.777162466258844"><ele>92.0</ele><time>2026-03-27T14:04:47Z</time></trkpt><trkpt lat="52.40276076602519" lon="10.777196660665238"><ele>92.0</ele><time>2026-03-27T14:04:50Z</time></trkpt><trkpt lat="52.402677660689584" lon="10.777237857396441"><ele>92.0</ele><time>2026-03-27T14:04:54Z</time></trkpt><trkpt lat="52.402609815420405" lon="10.777278248849884"><ele>92.0</ele><time>2026-03-27T14:04:57Z</time></trkpt><trkpt lat="52.402543107742346" lon="10.777325344821518"><ele>92.0</ele><time>2026-03-27T14:05:01Z</time></trkpt><trkpt lat="52.4024795944817" lon="10.777354243884075"><ele>92.0</ele><time>2026-03-27T14:05:04Z</time></trkpt><trkpt lat="52.40240903750275" lon="10.77738492801086"><ele>92.0</ele><time>2026-03-27T14:05:07.001Z</time></trkpt><trkpt lat="52.40234852128382" lon="10.777414933047758"><ele>92.0</ele><time>2026-03-27T14:05:11.001Z</time></trkpt><trkpt lat="52.402269429925575" lon="10.777455047170449"><ele>92.0</ele><time>2026-03-27T14:05:15.001Z</time></trkpt><trkpt lat="52.40220826762773" lon="10.777486422245763"><ele>92.0</ele><time>2026-03-27T14:05:18.001Z</time></trkpt><trkpt lat="52.402146081972205" lon="10.777526557904132"><ele>92.0</ele><time>2026-03-27T14:05:21.001Z</time></trkpt><trkpt lat="52.402079994606716" lon="10.777579541325107"><ele>92.0</ele><time>2026-03-27T14:05:25.001Z</time></trkpt><trkpt lat="52.40201461696404" lon="10.7775737483718"><ele>93.0</ele><time>2026-03-27T14:05:28.001Z</time></trkpt><trkpt lat="52.40194219616107" lon="10.777626931379755"><ele>94.0</ele><time>2026-03-27T14:05:32Z</time></trkpt><trkpt lat="52.40186637327097" lon="10.77765612580184"><ele>95.0</ele><time>2026-03-27T14:05:36Z</time></trkpt><trkpt lat="52.40179599408831" lon="10.77770228205577"><ele>96.0</ele><time>2026-03-27T14:05:40Z</time></trkpt><trkpt lat="52.40172726298054" lon="10.777760181567263"><ele>96.99999999999999</ele><time>2026-03-27T14:05:44Z</time></trkpt><trkpt lat="52.401666267491635" lon="10.777789033827766"><ele>98.0</ele><time>2026-03-27T14:05:47Z</time></trkpt><trkpt lat="52.40159164280692" lon="10.7778240330853"><ele>98.0</ele><time>2026-03-27T14:05:51Z</time></trkpt><trkpt lat="52.401518528633574" lon="10.777841197986929"><ele>98.0</ele><time>2026-03-27T14:05:55Z</time></trkpt><trkpt lat="52.401460561112955" lon="10.777896042128628"><ele>98.0</ele><time>2026-03-27T14:05:59Z</time></trkpt><trkpt lat="52.40138917648392" lon="10.77792674883926"><ele>98.0</ele><time>2026-03-27T14:06:03Z</time></trkpt><trkpt lat="52.401313742172576" lon="10.777958762354238"><ele>98.0</ele><time>2026-03-27T14:06:08Z</time></trkpt><trkpt lat="52.401248893097765" lon="10.77799541711312"><ele>98.0</ele><time>2026-03-27T14:06:12Z</time></trkpt><trkpt lat="52.40117612375909" lon="10.778023396520814"><ele>98.0</ele><time>2026-03-27T14:06:16Z</time></trkpt><trkpt lat="52.4011135501471" lon="10.77806726444303"><ele>98.33333333333333</ele><time>2026-03-27T14:06:20Z</time></trkpt><trkpt lat="52.40104879370189" lon="10.778099354575629"><ele>98.66666666666666</ele><time>2026-03-27T14:06:24Z</time></trkpt><trkpt lat="52.4009789520548" lon="10.778126503982664"><ele>99.0</ele><time>2026-03-27T14:06:28Z</time></trkpt><trkpt lat="52.400895875218005" lon="10.77817096995048"><ele>99.33333333333334</ele><time>2026-03-27T14:06:33Z</time></trkpt><trkpt lat="52.400822956967154" lon="10.77821090582953"><ele>99.66666666666667</ele><time>2026-03-27T14:06:37Z</time></trkpt><trkpt lat="52.400749834066794" lon="10.778245734062365"><ele>100.0</ele><time>2026-03-27T14:06:41Z</time></trkpt><trkpt lat="52.40067433388828" lon="10.778283672826364"><ele>100.00000000000001</ele><time>2026-03-27T14:06:45Z</time></trkpt><trkpt lat="52.40060410171807" lon="10.778324218331473"><ele>100.0</ele><time>2026-03-27T14:06:49Z</time></trkpt><trkpt lat="52.40053049995679" lon="10.778361740868416"><ele>100.0</ele><time>2026-03-27T14:06:53Z</time></trkpt><trkpt lat="52.40046440496595" lon="10.778383837707075"><ele>100.0</ele><time>2026-03-27T14:06:57Z</time></trkpt><trkpt lat="52.400395848988275" lon="10.77841921181868"><ele>100.0</ele><time>2026-03-27T14:07:01Z</time></trkpt><trkpt lat="52.40032955135362" lon="10.778460552633737"><ele>100.00000000000001</ele><time>2026-03-27T14:07:05Z</time></trkpt><trkpt lat="52.40025547054752" lon="10.778495659788824"><ele>100.0</ele><time>2026-03-27T14:07:09Z</time></trkpt><trkpt lat="52.40019408113682" lon="10.778523753620222"><ele>100.42857142857143</ele><time>2026-03-27T14:07:12Z</time></trkpt><trkpt lat="52.40013061070575" lon="10.778557856450448"><ele>100.85714285714286</ele><time>2026-03-27T14:07:15.001Z</time></trkpt><trkpt lat="52.40006039157351" lon="10.778594773776527"><ele>101.28571428571428</ele><time>2026-03-27T14:07:18.001Z</time></trkpt><trkpt lat="52.40000133611373" lon="10.778637793200247"><ele>101.71428571428572</ele><time>2026-03-27T14:07:21Z</time></trkpt><trkpt lat="52.39993056210768" lon="10.778671662278544"><ele>102.14285714285714</ele><time>2026-03-27T14:07:24Z</time></trkpt><trkpt lat="52.39986993704232" lon="10.77870495124731"><ele>102.57142857142857</ele><time>2026-03-27T14:07:27Z</time></trkpt><trkpt lat="52.39979307190336" lon="10.778751598051509"><ele>103.0</ele><time>2026-03-27T14:07:30Z</time></trkpt><trkpt lat="52.39972131436616" lon="10.778787874387469"><ele>103.28571428571428</ele><time>2026-03-27T14:07:33Z</time></trkpt><trkpt lat="52.39964930652512" lon="10.778815431415763"><ele>103.57142857142857</ele><time>2026-03-27T14:07:36Z</time></trkpt><trkpt lat="52.39957528977824" lon="10.778859500417854"><ele>103.85714285714286</ele><time>2026-03-27T14:07:39Z</time></trkpt><trkpt lat="52.39950078562175" lon="10.7789047581811"><ele>104.14285714285714</ele><time>2026-03-27T14:07:42Z</time></trkpt><trkpt lat="52.39943401860927" lon="10.778938529225986"><ele>104.42857142857143</ele><time>2026-03-27T14:07:45Z</time></trkpt><trkpt lat="52.39936899093077" lon="10.77897094993647"><ele>104.71428571428571</ele><time>2026-03-27T14:07:48Z</time></trkpt><trkpt lat="52.399299445374936" lon="10.779003448334278"><ele>105.0</ele><time>2026-03-27T14:07:51Z</time></trkpt><trkpt lat="52.399221948825506" lon="10.779052351383712"><ele>105.0</ele><time>2026-03-27T14:07:54Z</time></trkpt><trkpt lat="52.399148734664884" lon="10.779084349915482"><ele>105.0</ele><time>2026-03-27T14:07:57Z</time></trkpt><trkpt lat="52.39907059226836" lon="10.779130990999837"><ele>105.0</ele><time>2026-03-27T14:08:01Z</time></trkpt><trkpt lat="52.399007031606736" lon="10.77916894657407"><ele>105.0</ele><time>2026-03-27T14:08:04Z</time></trkpt><trkpt lat="52.3989219245397" lon="10.7792029206431"><ele>105.0</ele><time>2026-03-27T14:08:07Z</time></trkpt><trkpt lat="52.39885655878232" lon="10.779237640932296"><ele>105.0</ele><time>2026-03-27T14:08:10Z</time></trkpt><trkpt lat="52.39878619428994" lon="10.779279689629302"><ele>105.33333333333333</ele><time>2026-03-27T14:08:13Z</time></trkpt><trkpt lat="52.39870638348318" lon="10.77931655713887"><ele>105.66666666666666</ele><time>2026-03-27T14:08:16Z</time></trkpt><trkpt lat="52.39863238794276" lon="10.77935017164079"><ele>106.0</ele><time>2026-03-27T14:08:19Z</time></trkpt><trkpt lat="52.398557438168005" lon="10.779388032033046"><ele>106.33333333333333</ele><time>2026-03-27T14:08:22Z</time></trkpt><trkpt lat="52.39849129041602" lon="10.779414218383492"><ele>106.66666666666666</ele><time>2026-03-27T14:08:25Z</time></trkpt><trkpt lat="52.39840648279483" lon="10.779455529158385"><ele>107.0</ele><time>2026-03-27T14:08:28Z</time></trkpt><trkpt lat="52.39832445853295" lon="10.779515909583655"><ele>107.39999999999999</ele><time>2026-03-27T14:08:31Z</time></trkpt><trkpt lat="52.39831744999347" lon="10.779657489631164"><ele>107.79999999999998</ele><time>2026-03-27T14:08:34Z</time></trkpt><trkpt lat="52.398337769459495" lon="10.779785317161046"><ele>108.2</ele><time>2026-03-27T14:08:37Z</time></trkpt><trkpt lat="52.39836151891277" lon="10.77992487491892"><ele>108.6</ele><time>2026-03-27T14:08:40Z</time></trkpt><trkpt lat="52.39838357070677" lon="10.780067027479333"><ele>109.0</ele><time>2026-03-27T14:08:42Z</time></trkpt><trkpt lat="52.39841198788779" lon="10.780233399544352"><ele>109.25</ele><time>2026-03-27T14:08:44Z</time></trkpt><trkpt lat="52.39844108198869" lon="10.780422209316225"><ele>109.5</ele><time>2026-03-27T14:08:46Z</time></trkpt><trkpt lat="52.39847930533134" lon="10.78059804638127"><ele>109.75</ele><time>2026-03-27T14:08:48Z</time></trkpt><trkpt lat="52.39851138046082" lon="10.780771816316559"><ele>110.0</ele><time>2026-03-27T14:08:50Z</time></trkpt><trkpt lat="52.39854535059579" lon="10.780947922683424"><ele>110.2</ele><time>2026-03-27T14:08:52Z</time></trkpt><trkpt lat="52.3985810587878" lon="10.781127862330402"><ele>110.4</ele><time>2026-03-27T14:08:54Z</time></trkpt><trkpt lat="52.39861244211348" lon="10.781302305169865"><ele>110.6</ele><time>2026-03-27T14:08:56Z</time></trkpt><trkpt lat="52.39864769192644" lon="10.781476584861226"><ele>110.8</ele><time>2026-03-27T14:08:58Z</time></trkpt><trkpt lat="52.398678964018195" lon="10.78164615567192"><ele>111.0</ele><time>2026-03-27T14:09:00Z</time></trkpt><trkpt lat="52.39870972069669" lon="10.781801505143006"><ele>111.19999999999999</ele><time>2026-03-27T14:09:02Z</time></trkpt><trkpt lat="52.39873937896203" lon="10.781959100848155"><ele>111.39999999999999</ele><time>2026-03-27T14:09:04Z</time></trkpt><trkpt lat="52.398769278804906" lon="10.78212084162761"><ele>111.6</ele><time>2026-03-27T14:09:06Z</time></trkpt><trkpt lat="52.398795798168884" lon="10.782273846174924"><ele>111.8</ele><time>2026-03-27T14:09:08Z</time></trkpt><trkpt lat="52.39882785753581" lon="10.782419406900223"><ele>112.0</ele><time>2026-03-27T14:09:10Z</time></trkpt><trkpt lat="52.39885033089858" lon="10.782562266928966"><ele>111.83333333333334</ele><time>2026-03-27T14:09:12Z</time></trkpt><trkpt lat="52.39886820418997" lon="10.782712683924006"><ele>111.66666666666667</ele><time>2026-03-27T14:09:13.999Z</time></trkpt><trkpt lat="52.39889332912612" lon="10.782843045227304"><ele>111.5</ele><time>2026-03-27T14:09:15.999Z</time></trkpt><trkpt lat="52.398932676521774" lon="10.782958083294284"><ele>111.33333333333334</ele><time>2026-03-27T14:09:17.999Z</time></trkpt><trkpt lat="52.39895119354122" lon="10.78308493547439"><ele>111.16666666666667</ele><time>2026-03-27T14:09:20Z</time></trkpt><trkpt lat="52.39897674750321" lon="10.783213663866212"><ele>111.0</ele><time>2026-03-27T14:09:22Z</time></trkpt><trkpt lat="52.39899875488541" lon="10.783327664148388"><ele>111.0</ele><time>2026-03-27T14:09:24Z</time></trkpt><trkpt lat="52.39902008120307" lon="10.78343512276277"><ele>111.0</ele><time>2026-03-27T14:09:26Z</time></trkpt><trkpt lat="52.39904642681786" lon="10.783549438952383"><ele>111.0</ele><time>2026-03-27T14:09:28Z</time></trkpt><trkpt lat="52.399067504153855" lon="10.783679512779974"><ele>111.0</ele><time>2026-03-27T14:09:30Z</time></trkpt><trkpt lat="52.39909512878942" lon="10.78381772250816"><ele>111.0</ele><time>2026-03-27T14:09:32Z</time></trkpt><trkpt lat="52.39912556807551" lon="10.783974703864967"><ele>111.0</ele><time>2026-03-27T14:09:34Z</time></trkpt><trkpt lat="52.399161379640056" lon="10.784131395538155"><ele>111.0</ele><time>2026-03-27T14:09:36Z</time></trkpt><trkpt lat="52.39918847025703" lon="10.7842940274877"><ele>111.0</ele><time>2026-03-27T14:09:38Z</time></trkpt><trkpt lat="52.39922356023518" lon="10.78445791171748"><ele>111.0</ele><time>2026-03-27T14:09:40Z</time></trkpt><trkpt lat="52.399256019504065" lon="10.784617714696756"><ele>111.0</ele><time>2026-03-27T14:09:42Z</time></trkpt><trkpt lat="52.39928548270103" lon="10.784767086058618"><ele>111.0</ele><time>2026-03-27T14:09:44Z</time></trkpt><trkpt lat="52.399311085471425" lon="10.784906300130526"><ele>111.16666666666667</ele><time>2026-03-27T14:09:46Z</time></trkpt><trkpt lat="52.399340605723715" lon="10.785039965530592"><ele>111.33333333333334</ele><time>2026-03-27T14:09:48Z</time></trkpt><trkpt lat="52.39936743744485" lon="10.785161992632036"><ele>111.5</ele><time>2026-03-27T14:09:50Z</time></trkpt><trkpt lat="52.39939187328737" lon="10.785283339249156"><ele>111.66666666666667</ele><time>2026-03-27T14:09:52Z</time></trkpt><trkpt lat="52.399415603618685" lon="10.78539871688866"><ele>111.83333333333334</ele><time>2026-03-27T14:09:54Z</time></trkpt><trkpt lat="52.3994390170304" lon="10.785506752452326"><ele>112.0</ele><time>2026-03-27T14:09:56Z</time></trkpt><trkpt lat="52.399448017945936" lon="10.785611487281527"><ele>111.66666666666667</ele><time>2026-03-27T14:09:58Z</time></trkpt><trkpt lat="52.39947820565822" lon="10.78574088763614"><ele>111.33333333333334</ele><time>2026-03-27T14:10:01Z</time></trkpt><trkpt lat="52.39950159516006" lon="10.785854930798994"><ele>111.0</ele><time>2026-03-27T14:10:04Z</time></trkpt><trkpt lat="52.39948578692241" lon="10.785744577577647"><ele>110.66666666666666</ele><time>2026-03-27T14:10:11Z</time></trkpt><trkpt lat="52.3994512139949" lon="10.785841199114587"><ele>110.33333333333333</ele><time>2026-03-27T14:10:14Z</time></trkpt><trkpt lat="52.39953227471333" lon="10.785860552628094"><ele>110.0</ele><time>2026-03-27T14:10:17Z</time></trkpt><trkpt lat="52.399513986571044" lon="10.785734027374936"><ele>109.99999999999999</ele><time>2026-03-27T14:10:20Z</time></trkpt><trkpt lat="52.39949386030358" lon="10.785849842128123"><ele>110.0</ele><time>2026-03-27T14:10:24Z</time></trkpt><trkpt lat="52.39952663374023" lon="10.785999177497073"><ele>110.0</ele><time>2026-03-27T14:10:27Z</time></trkpt><trkpt lat="52.3995547151514" lon="10.786112908824663"><ele>110.0</ele><time>2026-03-27T14:10:29Z</time></trkpt><trkpt lat="52.399586226369415" lon="10.78622982260638"><ele>109.99999999999999</ele><time>2026-03-27T14:10:31Z</time></trkpt><trkpt lat="52.39961508757883" lon="10.786346787209657"><ele>110.0</ele><time>2026-03-27T14:10:33Z</time></trkpt><trkpt lat="52.399643939275144" lon="10.786463521107807"><ele>110.42857142857142</ele><time>2026-03-27T14:10:35Z</time></trkpt><trkpt lat="52.39967065772184" lon="10.786584240169848"><ele>110.85714285714286</ele><time>2026-03-27T14:10:37Z</time></trkpt><trkpt lat="52.39969540171149" lon="10.786690925202043"><ele>111.28571428571428</ele><time>2026-03-27T14:10:39Z</time></trkpt><trkpt lat="52.39971716827303" lon="10.786788953932279"><ele>111.71428571428571</ele><time>2026-03-27T14:10:41Z</time></trkpt><trkpt lat="52.39973780809958" lon="10.786893333775442"><ele>112.14285714285714</ele><time>2026-03-27T14:10:43Z</time></trkpt><trkpt lat="52.399762904944545" lon="10.786993530832177"><ele>112.57142857142857</ele><time>2026-03-27T14:10:45Z</time></trkpt><trkpt lat="52.399801017970205" lon="10.787137742284632"><ele>113.0</ele><time>2026-03-27T14:10:48Z</time></trkpt><trkpt lat="52.399825575745886" lon="10.787239585985446"><ele>113.0</ele><time>2026-03-27T14:10:50Z</time></trkpt><trkpt lat="52.3998490773846" lon="10.787349285041307"><ele>113.0</ele><time>2026-03-27T14:10:52Z</time></trkpt><trkpt lat="52.399878268645644" lon="10.787461369173492"><ele>113.0</ele><time>2026-03-27T14:10:54Z</time></trkpt><trkpt lat="52.39990493817499" lon="10.78756917304252"><ele>113.0</ele><time>2026-03-27T14:10:56Z</time></trkpt><trkpt lat="52.39993029486121" lon="10.787677580258586"><ele>113.0</ele><time>2026-03-27T14:10:58Z</time></trkpt><trkpt lat="52.39995588341935" lon="10.787789205857631"><ele>113.0</ele><time>2026-03-27T14:11:00Z</time></trkpt><trkpt lat="52.39998419692173" lon="10.78790567082957"><ele>113.0</ele><time>2026-03-27T14:11:02Z</time></trkpt><trkpt lat="52.40001252644289" lon="10.788028314729289"><ele>112.83333333333333</ele><time>2026-03-27T14:11:04Z</time></trkpt><trkpt lat="52.4000391107441" lon="10.788149595793081"><ele>112.66666666666666</ele><time>2026-03-27T14:11:05.999Z</time></trkpt><trkpt lat="52.400068467241574" lon="10.788273819331188"><ele>112.5</ele><time>2026-03-27T14:11:07.999Z</time></trkpt><trkpt lat="52.40008910185961" lon="10.788391222983002"><ele>112.33333333333334</ele><time>2026-03-27T14:11:09.999Z</time></trkpt><trkpt lat="52.400115363202325" lon="10.788494963692537"><ele>112.16666666666667</ele><time>2026-03-27T14:11:11.999Z</time></trkpt><trkpt lat="52.400146326699485" lon="10.788604316623594"><ele>112.0</ele><time>2026-03-27T14:11:13.999Z</time></trkpt><trkpt lat="52.40016698491802" lon="10.788725087474546"><ele>111.66666666666667</ele><time>2026-03-27T14:11:15.999Z</time></trkpt><trkpt lat="52.40019693022609" lon="10.788850110084393"><ele>111.33333333333334</ele><time>2026-03-27T14:11:17.999Z</time></trkpt><trkpt lat="52.4002247746856" lon="10.788973231885313"><ele>111.0</ele><time>2026-03-27T14:11:19.999Z</time></trkpt><trkpt lat="52.400255782940796" lon="10.78910321737352"><ele>110.66666666666666</ele><time>2026-03-27T14:11:21.999Z</time></trkpt><trkpt lat="52.40028891780271" lon="10.789234610156814"><ele>110.33333333333333</ele><time>2026-03-27T14:11:23.999Z</time></trkpt><trkpt lat="52.40031985031272" lon="10.789371290739613"><ele>110.0</ele><time>2026-03-27T14:11:26Z</time></trkpt><trkpt lat="52.40035082678246" lon="10.78950645034278"><ele>109.66666666666666</ele><time>2026-03-27T14:11:28Z</time></trkpt><trkpt lat="52.4003789699103" lon="10.789637077907278"><ele>109.33333333333333</ele><time>2026-03-27T14:11:30Z</time></trkpt><trkpt lat="52.400410299200125" lon="10.789767692528828"><ele>109.0</ele><time>2026-03-27T14:11:32Z</time></trkpt><trkpt lat="52.40043961350436" lon="10.78989936672865"><ele>108.66666666666666</ele><time>2026-03-27T14:11:34Z</time></trkpt><trkpt lat="52.40047160696707" lon="10.790043082439617"><ele>108.33333333333333</ele><time>2026-03-27T14:11:36Z</time></trkpt><trkpt lat="52.40050279278622" lon="10.7901993850635"><ele>108.0</ele><time>2026-03-27T14:11:38Z</time></trkpt><trkpt lat="52.400540813834134" lon="10.790342440650878"><ele>108.0</ele><time>2026-03-27T14:11:40Z</time></trkpt><trkpt lat="52.4005741609252" lon="10.79049087442162"><ele>108.00000000000001</ele><time>2026-03-27T14:11:42Z</time></trkpt><trkpt lat="52.40061117662122" lon="10.790640663358335"><ele>108.00000000000001</ele><time>2026-03-27T14:11:44Z</time></trkpt><trkpt lat="52.400645614602425" lon="10.790795712296342"><ele>108.0</ele><time>2026-03-27T14:11:46Z</time></trkpt><trkpt lat="52.40068360695545" lon="10.79096706403"><ele>108.0</ele><time>2026-03-27T14:11:48Z</time></trkpt><trkpt lat="52.400726024617086" lon="10.791134454231496"><ele>107.5</ele><time>2026-03-27T14:11:50Z</time></trkpt><trkpt lat="52.40076338182107" lon="10.791307374010767"><ele>107.0</ele><time>2026-03-27T14:11:52Z</time></trkpt><trkpt lat="52.400806031584416" lon="10.791481202379448"><ele>106.5</ele><time>2026-03-27T14:11:54Z</time></trkpt><trkpt lat="52.40085194098474" lon="10.791662370936537"><ele>106.0</ele><time>2026-03-27T14:11:56Z</time></trkpt><trkpt lat="52.40089793698867" lon="10.791852410615872"><ele>105.57142857142857</ele><time>2026-03-27T14:11:58Z</time></trkpt><trkpt lat="52.400921931210846" lon="10.791949810755899"><ele>105.14285714285714</ele><time>2026-03-27T14:11:59Z</time></trkpt><trkpt lat="52.40094252550427" lon="10.792047789422995"><ele>104.71428571428571</ele><time>2026-03-27T14:12:00Z</time></trkpt><trkpt lat="52.40096559930945" lon="10.792148188934958"><ele>104.28571428571428</ele><time>2026-03-27T14:12:01Z</time></trkpt><trkpt lat="52.40099098001738" lon="10.792247447441376"><ele>103.85714285714286</ele><time>2026-03-27T14:12:02Z</time></trkpt><trkpt lat="52.40102533336531" lon="10.792338937382285"><ele>103.42857142857142</ele><time>2026-03-27T14:12:03Z</time></trkpt><trkpt lat="52.40105051602323" lon="10.792439541704397"><ele>103.0</ele><time>2026-03-27T14:12:04Z</time></trkpt><trkpt lat="52.401075307487524" lon="10.79254643158682"><ele>102.99999999999999</ele><time>2026-03-27T14:12:05Z</time></trkpt><trkpt lat="52.40109665175155" lon="10.792649537385318"><ele>103.0</ele><time>2026-03-27T14:12:06Z</time></trkpt><trkpt lat="52.40112349608751" lon="10.792753227108916"><ele>103.0</ele><time>2026-03-27T14:12:07Z</time></trkpt><trkpt lat="52.40114613421385" lon="10.792859872697566"><ele>103.0</ele><time>2026-03-27T14:12:08Z</time></trkpt><trkpt lat="52.40117533662164" lon="10.792968255398446"><ele>103.0</ele><time>2026-03-27T14:12:09Z</time></trkpt><trkpt lat="52.401199314548975" lon="10.793071932428987"><ele>102.99999999999999</ele><time>2026-03-27T14:12:10Z</time></trkpt><trkpt lat="52.40122469027176" lon="10.793184431093193"><ele>103.0</ele><time>2026-03-27T14:12:11Z</time></trkpt><trkpt lat="52.401246398308885" lon="10.793295557556952"><ele>103.14285714285714</ele><time>2026-03-27T14:12:12Z</time></trkpt><trkpt lat="52.40127730680517" lon="10.79340580770104"><ele>103.28571428571428</ele><time>2026-03-27T14:12:13Z</time></trkpt><trkpt lat="52.40129993534593" lon="10.793516180302543"><ele>103.42857142857142</ele><time>2026-03-27T14:12:14Z</time></trkpt><trkpt lat="52.40131412135297" lon="10.793635684258748"><ele>103.57142857142857</ele><time>2026-03-27T14:12:15Z</time></trkpt><trkpt lat="52.40135402666928" lon="10.793732918308837"><ele>103.71428571428572</ele><time>2026-03-27T14:12:16Z</time></trkpt><trkpt lat="52.4013656351877" lon="10.793856756847516"><ele>103.85714285714285</ele><time>2026-03-27T14:12:17Z</time></trkpt><trkpt lat="52.40140548837996" lon="10.793960013321596"><ele>104.0</ele><time>2026-03-27T14:12:18Z</time></trkpt><trkpt lat="52.401430703022534" lon="10.794075453970386"><ele>103.99999999999999</ele><time>2026-03-27T14:12:19Z</time></trkpt><trkpt lat="52.40145839792886" lon="10.794191555661323"><ele>104.0</ele><time>2026-03-27T14:12:20Z</time></trkpt><trkpt lat="52.40148098037436" lon="10.79430176105536"><ele>104.0</ele><time>2026-03-27T14:12:21Z</time></trkpt><trkpt lat="52.401505300806384" lon="10.794408247608317"><ele>104.0</ele><time>2026-03-27T14:12:22Z</time></trkpt><trkpt lat="52.40152765409783" lon="10.794513095486295"><ele>103.99999999999999</ele><time>2026-03-27T14:12:23Z</time></trkpt><trkpt lat="52.4015558670297" lon="10.794606344251996"><ele>104.0</ele><time>2026-03-27T14:12:24Z</time></trkpt><trkpt lat="52.40159446853904" lon="10.794788502092393"><ele>103.80000000000001</ele><time>2026-03-27T14:12:26Z</time></trkpt><trkpt lat="52.40163366899809" lon="10.794962659983284"><ele>103.60000000000001</ele><time>2026-03-27T14:12:28Z</time></trkpt><trkpt lat="52.40166620152391" lon="10.795114376423045"><ele>103.4</ele><time>2026-03-27T14:12:30Z</time></trkpt><trkpt lat="52.40169570759911" lon="10.795242796801912"><ele>103.2</ele><time>2026-03-27T14:12:32Z</time></trkpt><trkpt lat="52.4017273315376" lon="10.79537658547831"><ele>103.0</ele><time>2026-03-27T14:12:34Z</time></trkpt><trkpt lat="52.40176282219135" lon="10.795504991078667"><ele>102.80000000000001</ele><time>2026-03-27T14:12:36Z</time></trkpt><trkpt lat="52.401802615803014" lon="10.795637957558707"><ele>102.6</ele><time>2026-03-27T14:12:38Z</time></trkpt><trkpt lat="52.40183473800551" lon="10.795774514180428"><ele>102.4</ele><time>2026-03-27T14:12:40Z</time></trkpt><trkpt lat="52.401866912298225" lon="10.795913382726658"><ele>102.19999999999999</ele><time>2026-03-27T14:12:42Z</time></trkpt><trkpt lat="52.401900798288175" lon="10.7960526427286"><ele>102.0</ele><time>2026-03-27T14:12:44Z</time></trkpt><trkpt lat="52.4019346301996" lon="10.796191941047415"><ele>101.6</ele><time>2026-03-27T14:12:46Z</time></trkpt><trkpt lat="52.40196381827117" lon="10.79632902391092"><ele>101.19999999999999</ele><time>2026-03-27T14:12:48Z</time></trkpt><trkpt lat="52.402000999529086" lon="10.796469752477108"><ele>100.8</ele><time>2026-03-27T14:12:50Z</time></trkpt><trkpt lat="52.40203139775601" lon="10.796613850215607"><ele>100.4</ele><time>2026-03-27T14:12:52Z</time></trkpt><trkpt lat="52.40206771181008" lon="10.796762413833068"><ele>100.0</ele><time>2026-03-27T14:12:54Z</time></trkpt><trkpt lat="52.402105542836196" lon="10.796904135145088"><ele>99.8</ele><time>2026-03-27T14:12:56Z</time></trkpt><trkpt lat="52.402136235103725" lon="10.797055224095834"><ele>99.6</ele><time>2026-03-27T14:12:58Z</time></trkpt><trkpt lat="52.40217208867255" lon="10.797210036003078"><ele>99.4</ele><time>2026-03-27T14:13:00Z</time></trkpt><trkpt lat="52.40220711050386" lon="10.797364309109284"><ele>99.2</ele><time>2026-03-27T14:13:02Z</time></trkpt><trkpt lat="52.402245991178766" lon="10.797515413234356"><ele>99.0</ele><time>2026-03-27T14:13:03.999Z</time></trkpt><trkpt lat="52.402284265679505" lon="10.797670474336496"><ele>98.80000000000001</ele><time>2026-03-27T14:13:05.999Z</time></trkpt><trkpt lat="52.40232242282998" lon="10.797821195359862"><ele>98.60000000000001</ele><time>2026-03-27T14:13:07.999Z</time></trkpt><trkpt lat="52.40235506248756" lon="10.79798837905124"><ele>98.4</ele><time>2026-03-27T14:13:09.999Z</time></trkpt><trkpt lat="52.40238927107879" lon="10.798151401700652"><ele>98.2</ele><time>2026-03-27T14:13:11.999Z</time></trkpt><trkpt lat="52.40243754747094" lon="10.798296744363222"><ele>98.0</ele><time>2026-03-27T14:13:13.999Z</time></trkpt><trkpt lat="52.402479378764134" lon="10.79846311238039"><ele>97.80000000000001</ele><time>2026-03-27T14:13:15.999Z</time></trkpt><trkpt lat="52.402518176147986" lon="10.79863020761213"><ele>97.6</ele><time>2026-03-27T14:13:17.999Z</time></trkpt><trkpt lat="52.40255460647892" lon="10.798792372664375"><ele>97.4</ele><time>2026-03-27T14:13:19.999Z</time></trkpt><trkpt lat="52.402594824927995" lon="10.798950824830762"><ele>97.19999999999999</ele><time>2026-03-27T14:13:21.999Z</time></trkpt><trkpt lat="52.402628880224924" lon="10.79911528838437"><ele>97.0</ele><time>2026-03-27T14:13:23.999Z</time></trkpt><trkpt lat="52.40266954493825" lon="10.799277326378062"><ele>96.19999999999999</ele><time>2026-03-27T14:13:25.999Z</time></trkpt><trkpt lat="52.402705821704544" lon="10.799449805866974"><ele>95.4</ele><time>2026-03-27T14:13:27.999Z</time></trkpt><trkpt lat="52.40273342789185" lon="10.799623713585884"><ele>94.6</ele><time>2026-03-27T14:13:29.999Z</time></trkpt><trkpt lat="52.40276487404515" lon="10.799788805921951"><ele>93.80000000000001</ele><time>2026-03-27T14:13:32Z</time></trkpt><trkpt lat="52.40280135947076" lon="10.799980354395617"><ele>93.0</ele><time>2026-03-27T14:13:34Z</time></trkpt><trkpt lat="52.40283925856478" lon="10.80016932441448"><ele>92.71428571428572</ele><time>2026-03-27T14:13:36Z</time></trkpt><trkpt lat="52.40286089585752" lon="10.80027089022361"><ele>92.42857142857143</ele><time>2026-03-27T14:13:37Z</time></trkpt><trkpt lat="52.402885382261466" lon="10.800376221601201"><ele>92.14285714285714</ele><time>2026-03-27T14:13:38Z</time></trkpt><trkpt lat="52.40292486299067" lon="10.800476256201087"><ele>91.85714285714286</ele><time>2026-03-27T14:13:39Z</time></trkpt><trkpt lat="52.40293894489717" lon="10.800599562481748"><ele>91.57142857142857</ele><time>2026-03-27T14:13:40Z</time></trkpt><trkpt lat="52.402965861231955" lon="10.800706422528176"><ele>91.28571428571429</ele><time>2026-03-27T14:13:41Z</time></trkpt><trkpt lat="52.40300714765364" lon="10.800809355388402"><ele>91.0</ele><time>2026-03-27T14:13:42Z</time></trkpt><trkpt lat="52.403032388959865" lon="10.80091787187807"><ele>90.16666666666666</ele><time>2026-03-27T14:13:43Z</time></trkpt><trkpt lat="52.40306256387157" lon="10.801028203664968"><ele>89.33333333333333</ele><time>2026-03-27T14:13:44Z</time></trkpt><trkpt lat="52.40309157151854" lon="10.801142975466687"><ele>88.5</ele><time>2026-03-27T14:13:45Z</time></trkpt><trkpt lat="52.40311920530214" lon="10.801259597050501"><ele>87.66666666666667</ele><time>2026-03-27T14:13:46Z</time></trkpt><trkpt lat="52.40314793956487" lon="10.801381229073868"><ele>86.83333333333334</ele><time>2026-03-27T14:13:47Z</time></trkpt><trkpt lat="52.40317672832314" lon="10.801516047798593"><ele>86.0</ele><time>2026-03-27T14:13:48Z</time></trkpt><trkpt lat="52.403213015015055" lon="10.801661378968934"><ele>86.0</ele><time>2026-03-27T14:13:49Z</time></trkpt><trkpt lat="52.40324724654577" lon="10.801800731771943"><ele>86.0</ele><time>2026-03-27T14:13:50Z</time></trkpt><trkpt lat="52.40329022156744" lon="10.801937808689095"><ele>86.0</ele><time>2026-03-27T14:13:51Z</time></trkpt><trkpt lat="52.40332731738817" lon="10.802082867835194"><ele>86.0</ele><time>2026-03-27T14:13:52Z</time></trkpt><trkpt lat="52.40336501200877" lon="10.802222497903127"><ele>86.0</ele><time>2026-03-27T14:13:53Z</time></trkpt><trkpt lat="52.40340792246577" lon="10.802361150349267"><ele>85.0</ele><time>2026-03-27T14:13:54Z</time></trkpt><trkpt lat="52.40345181849353" lon="10.802490635225796"><ele>84.0</ele><time>2026-03-27T14:13:55Z</time></trkpt><trkpt lat="52.40349413805643" lon="10.802613078433975"><ele>83.0</ele><time>2026-03-27T14:13:56Z</time></trkpt><trkpt lat="52.40353446220841" lon="10.802742552014704"><ele>82.0</ele><time>2026-03-27T14:13:57Z</time></trkpt><trkpt lat="52.40357114225206" lon="10.802862875593725"><ele>81.0</ele><time>2026-03-27T14:13:58Z</time></trkpt><trkpt lat="52.403577970478544" lon="10.802994692144384"><ele>80.0</ele><time>2026-03-27T14:13:59Z</time></trkpt><trkpt lat="52.40359458101762" lon="10.803113824760839"><ele>79.0</ele><time>2026-03-27T14:14:00Z</time></trkpt><trkpt lat="52.40360071169379" lon="10.803235619924896"><ele>78.0</ele><time>2026-03-27T14:14:01Z</time></trkpt><trkpt lat="52.40360536927076" lon="10.803444408263797"><ele>77.0</ele><time>2026-03-27T14:14:03Z</time></trkpt><trkpt lat="52.40362157246657" lon="10.803549511140982"><ele>76.0</ele><time>2026-03-27T14:14:04Z</time></trkpt><trkpt lat="52.40362934985276" lon="10.803735159626251"><ele>75.0</ele><time>2026-03-27T14:14:06Z</time></trkpt><trkpt lat="52.40362313019699" lon="10.803898039614632"><ele>75.0</ele><time>2026-03-27T14:14:08Z</time></trkpt><trkpt lat="52.403647519130146" lon="10.80404406985796"><ele>75.0</ele><time>2026-03-27T14:14:10Z</time></trkpt><trkpt lat="52.403655615527306" lon="10.804173237108262"><ele>75.0</ele><time>2026-03-27T14:14:12Z</time></trkpt><trkpt lat="52.40366203607798" lon="10.804285193792907"><ele>75.0</ele><time>2026-03-27T14:14:14Z</time></trkpt><trkpt lat="52.40365475280877" lon="10.804423373227012"><ele>75.0</ele><time>2026-03-27T14:14:17Z</time></trkpt><trkpt lat="52.40366233829951" lon="10.804549387884094"><ele>75.0</ele><time>2026-03-27T14:14:20Z</time></trkpt><trkpt lat="52.40366932024273" lon="10.804665365074289"><ele>75.71428571428571</ele><time>2026-03-27T14:14:23Z</time></trkpt><trkpt lat="52.40367777621146" lon="10.804805822620882"><ele>76.42857142857143</ele><time>2026-03-27T14:14:27Z</time></trkpt><trkpt lat="52.403685093346944" lon="10.804922445882708"><ele>77.14285714285714</ele><time>2026-03-27T14:14:30Z</time></trkpt><trkpt lat="52.40369269692881" lon="10.805038725030006"><ele>77.85714285714286</ele><time>2026-03-27T14:14:33Z</time></trkpt><trkpt lat="52.403710248258285" lon="10.80514273019584"><ele>78.57142857142857</ele><time>2026-03-27T14:14:36Z</time></trkpt><trkpt lat="52.40371555038808" lon="10.805246740610112"><ele>79.28571428571428</ele><time>2026-03-27T14:14:39Z</time></trkpt><trkpt lat="52.403723220683695" lon="10.805355110070773"><ele>80.0</ele><time>2026-03-27T14:14:42Z</time></trkpt><trkpt lat="52.40372933701979" lon="10.805468700309085"><ele>80.85714285714286</ele><time>2026-03-27T14:14:45Z</time></trkpt><trkpt lat="52.403744428372484" lon="10.805605614799731"><ele>81.71428571428572</ele><time>2026-03-27T14:14:49Z</time></trkpt><trkpt lat="52.403746857862515" lon="10.8057233216081"><ele>82.57142857142858</ele><time>2026-03-27T14:14:52Z</time></trkpt><trkpt lat="52.40375473049599" lon="10.805839426703722"><ele>83.42857142857143</ele><time>2026-03-27T14:14:55Z</time></trkpt><trkpt lat="52.40376015035682" lon="10.805978373770381"><ele>84.28571428571429</ele><time>2026-03-27T14:14:59Z</time></trkpt><trkpt lat="52.40376434775509" lon="10.80608874798981"><ele>85.14285714285715</ele><time>2026-03-27T14:15:02Z</time></trkpt><trkpt lat="52.403775828500216" lon="10.806193310538166"><ele>86.0</ele><time>2026-03-27T14:15:04.999Z</time></trkpt><trkpt lat="52.403779940401556" lon="10.806331508979603"><ele>86.28571428571429</ele><time>2026-03-27T14:15:08.999Z</time></trkpt><trkpt lat="52.403780891366814" lon="10.806436785651503"><ele>86.57142857142857</ele><time>2026-03-27T14:15:11.999Z</time></trkpt><trkpt lat="52.403787539850654" lon="10.806572839200015"><ele>86.85714285714286</ele><time>2026-03-27T14:15:15.999Z</time></trkpt><trkpt lat="52.4037972781461" lon="10.80670732527602"><ele>87.14285714285714</ele><time>2026-03-27T14:15:19.999Z</time></trkpt><trkpt lat="52.403809806547685" lon="10.806810601332023"><ele>87.42857142857143</ele><time>2026-03-27T14:15:22.999Z</time></trkpt><trkpt lat="52.40382129454222" lon="10.806913075189176"><ele>87.71428571428572</ele><time>2026-03-27T14:15:25.999Z</time></trkpt><trkpt lat="52.40382607587866" lon="10.807030529569383"><ele>88.0</ele><time>2026-03-27T14:15:28.999Z</time></trkpt><trkpt lat="52.4038300881373" lon="10.807140825666952"><ele>88.14285714285714</ele><time>2026-03-27T14:15:31.999Z</time></trkpt><trkpt lat="52.403842772709055" lon="10.807249022338944"><ele>88.28571428571428</ele><time>2026-03-27T14:15:34.999Z</time></trkpt><trkpt lat="52.403848075779564" lon="10.807352542645878"><ele>88.42857142857142</ele><time>2026-03-27T14:15:38Z</time></trkpt><trkpt lat="52.4038568088323" lon="10.807460496501298"><ele>88.57142857142857</ele><time>2026-03-27T14:15:41Z</time></trkpt><trkpt lat="52.403856335747555" lon="10.807585759407964"><ele>88.71428571428571</ele><time>2026-03-27T14:15:45Z</time></trkpt><trkpt lat="52.40386582746434" lon="10.807692301052084"><ele>88.85714285714285</ele><time>2026-03-27T14:15:48Z</time></trkpt><trkpt lat="52.40387427314076" lon="10.807795178497512"><ele>89.0</ele><time>2026-03-27T14:15:51Z</time></trkpt><trkpt lat="52.403887795867746" lon="10.807926286187444"><ele>88.99999999999999</ele><time>2026-03-27T14:15:55Z</time></trkpt><trkpt lat="52.40389444893499" lon="10.808052340146277"><ele>89.0</ele><time>2026-03-27T14:15:59Z</time></trkpt><trkpt lat="52.40390671080702" lon="10.808177163784507"><ele>89.0</ele><time>2026-03-27T14:16:03Z</time></trkpt><trkpt lat="52.403927095494076" lon="10.808287961979753"><ele>89.0</ele><time>2026-03-27T14:16:07Z</time></trkpt><trkpt lat="52.403989467453755" lon="10.808324397314557"><ele>89.0</ele><time>2026-03-27T14:16:11Z</time></trkpt><trkpt lat="52.404054660801755" lon="10.808308356404343"><ele>88.99999999999999</ele><time>2026-03-27T14:16:15Z</time></trkpt><trkpt lat="52.404122618326234" lon="10.808306792439351"><ele>89.0</ele><time>2026-03-27T14:16:18Z</time></trkpt><trkpt lat="52.4041876488052" lon="10.808309478801444"><ele>88.99999999999999</ele><time>2026-03-27T14:16:21Z</time></trkpt><trkpt lat="52.40425408633245" lon="10.808329448584152"><ele>89.0</ele><time>2026-03-27T14:16:24Z</time></trkpt><trkpt lat="52.40432369057041" lon="10.808316352595781"><ele>89.0</ele><time>2026-03-27T14:16:27Z</time></trkpt><trkpt lat="52.404391759733464" lon="10.80831218798555"><ele>89.0</ele><time>2026-03-27T14:16:30Z</time></trkpt><trkpt lat="52.40447259154118" lon="10.80831637225027"><ele>89.0</ele><time>2026-03-27T14:16:33Z</time></trkpt><trkpt lat="52.40454501140914" lon="10.808312123394298"><ele>88.99999999999999</ele><time>2026-03-27T14:16:36Z</time></trkpt><trkpt lat="52.40463357505381" lon="10.808300528690637"><ele>89.0</ele><time>2026-03-27T14:16:39Z</time></trkpt><trkpt lat="52.404723642136865" lon="10.808305959697256"><ele>89.0</ele><time>2026-03-27T14:16:42Z</time></trkpt><trkpt lat="52.404823668386435" lon="10.808299446464712"><ele>89.0</ele><time>2026-03-27T14:16:45Z</time></trkpt><trkpt lat="52.40491045792285" lon="10.808290092105615"><ele>89.0</ele><time>2026-03-27T14:16:47Z</time></trkpt><trkpt lat="52.40499111527715" lon="10.808279731850245"><ele>89.0</ele><time>2026-03-27T14:16:49Z</time></trkpt><trkpt lat="52.40507346437918" lon="10.808288881864899"><ele>89.0</ele><time>2026-03-27T14:16:51Z</time></trkpt><trkpt lat="52.40516821758448" lon="10.808283445636704"><ele>89.0</ele><time>2026-03-27T14:16:53Z</time></trkpt><trkpt lat="52.40526514280124" lon="10.8082774363023"><ele>89.0</ele><time>2026-03-27T14:16:55Z</time></trkpt><trkpt lat="52.40537359751208" lon="10.808276342536796"><ele>89.0</ele><time>2026-03-27T14:16:57Z</time></trkpt><trkpt lat="52.40548822108245" lon="10.808270380315971"><ele>89.0</ele><time>2026-03-27T14:16:59Z</time></trkpt><trkpt lat="52.405608356313245" lon="10.808263491771951"><ele>89.0</ele><time>2026-03-27T14:17:01Z</time></trkpt><trkpt lat="52.405730769438115" lon="10.808257817572471"><ele>88.80000000000001</ele><time>2026-03-27T14:17:03Z</time></trkpt><trkpt lat="52.40585261785626" lon="10.808251926773625"><ele>88.60000000000001</ele><time>2026-03-27T14:17:04.999Z</time></trkpt><trkpt lat="52.40597742403961" lon="10.808245741490156"><ele>88.4</ele><time>2026-03-27T14:17:06.999Z</time></trkpt><trkpt lat="52.40604093922025" lon="10.808243406815016"><ele>88.2</ele><time>2026-03-27T14:17:07.999Z</time></trkpt><trkpt lat="52.4061048746731" lon="10.80824252959435"><ele>88.0</ele><time>2026-03-27T14:17:08.999Z</time></trkpt><trkpt lat="52.40622940139308" lon="10.808229143983757"><ele>87.4</ele><time>2026-03-27T14:17:10.999Z</time></trkpt><trkpt lat="52.406354828490365" lon="10.808228064506748"><ele>86.80000000000001</ele><time>2026-03-27T14:17:12.999Z</time></trkpt><trkpt lat="52.40648068124621" lon="10.8082093675313"><ele>86.2</ele><time>2026-03-27T14:17:14.999Z</time></trkpt><trkpt lat="52.40654537230758" lon="10.808201708862224"><ele>85.6</ele><time>2026-03-27T14:17:15.999Z</time></trkpt><trkpt lat="52.40666819047438" lon="10.808199409770019"><ele>85.0</ele><time>2026-03-27T14:17:17.999Z</time></trkpt><trkpt lat="52.40679032226383" lon="10.808194664817819"><ele>85.0</ele><time>2026-03-27T14:17:19.999Z</time></trkpt><trkpt lat="52.4069092711432" lon="10.808171580201831"><ele>85.0</ele><time>2026-03-27T14:17:21.999Z</time></trkpt><trkpt lat="52.40702385729182" lon="10.80815605281242"><ele>85.0</ele><time>2026-03-27T14:17:23.999Z</time></trkpt><trkpt lat="52.407127873604836" lon="10.808154391192788"><ele>85.0</ele><time>2026-03-27T14:17:25.999Z</time></trkpt><trkpt lat="52.407241308902606" lon="10.808173519997625"><ele>84.4</ele><time>2026-03-27T14:17:27.999Z</time></trkpt><trkpt lat="52.40730429062329" lon="10.808170760334646"><ele>83.8</ele><time>2026-03-27T14:17:28.999Z</time></trkpt><trkpt lat="52.407422126872255" lon="10.808169323487675"><ele>83.19999999999999</ele><time>2026-03-27T14:17:30.999Z</time></trkpt><trkpt lat="52.40753943030906" lon="10.808172208890147"><ele>82.6</ele><time>2026-03-27T14:17:32.999Z</time></trkpt><trkpt lat="52.407660570624756" lon="10.808183261118591"><ele>82.0</ele><time>2026-03-27T14:17:34.999Z</time></trkpt><trkpt lat="52.407778075751864" lon="10.808185900565578"><ele>82.0</ele><time>2026-03-27T14:17:36.999Z</time></trkpt><trkpt lat="52.40789548727016" lon="10.808196269239058"><ele>82.0</ele><time>2026-03-27T14:17:38.999Z</time></trkpt><trkpt lat="52.40800794371958" lon="10.808207533500813"><ele>82.0</ele><time>2026-03-27T14:17:40.999Z</time></trkpt><trkpt lat="52.40812279240823" lon="10.808193964178251"><ele>82.0</ele><time>2026-03-27T14:17:43Z</time></trkpt><trkpt lat="52.40823860783969" lon="10.808140510282247"><ele>81.14285714285714</ele><time>2026-03-27T14:17:45Z</time></trkpt><trkpt lat="52.40829896717789" lon="10.808107243704603"><ele>80.28571428571428</ele><time>2026-03-27T14:17:46Z</time></trkpt><trkpt lat="52.408361635600045" lon="10.808072995768491"><ele>79.42857142857142</ele><time>2026-03-27T14:17:47Z</time></trkpt><trkpt lat="52.40842046419152" lon="10.808023643193643"><ele>78.57142857142857</ele><time>2026-03-27T14:17:48Z</time></trkpt><trkpt lat="52.4084805460339" lon="10.807979010082533"><ele>77.71428571428572</ele><time>2026-03-27T14:17:49Z</time></trkpt><trkpt lat="52.40854315321695" lon="10.80793775542888"><ele>76.85714285714285</ele><time>2026-03-27T14:17:50Z</time></trkpt><trkpt lat="52.40860500605061" lon="10.807896057712853"><ele>76.0</ele><time>2026-03-27T14:17:51Z</time></trkpt><trkpt lat="52.40866670411445" lon="10.807853094296442"><ele>76.0</ele><time>2026-03-27T14:17:52Z</time></trkpt><trkpt lat="52.40873119922721" lon="10.807811276734949"><ele>76.0</ele><time>2026-03-27T14:17:53Z</time></trkpt><trkpt lat="52.408792660610686" lon="10.807766795450679"><ele>76.0</ele><time>2026-03-27T14:17:54Z</time></trkpt><trkpt lat="52.408851278987584" lon="10.80771875568209"><ele>76.0</ele><time>2026-03-27T14:17:55Z</time></trkpt><trkpt lat="52.40891280664124" lon="10.807676830188443"><ele>76.0</ele><time>2026-03-27T14:17:56Z</time></trkpt><trkpt lat="52.40897649041953" lon="10.807639641222078"><ele>76.0</ele><time>2026-03-27T14:17:57Z</time></trkpt><trkpt lat="52.409030039916814" lon="10.807581663067461"><ele>76.0</ele><time>2026-03-27T14:17:58Z</time></trkpt><trkpt lat="52.409146580589855" lon="10.807505865670613"><ele>76.2</ele><time>2026-03-27T14:18:00Z</time></trkpt><trkpt lat="52.40920613925836" lon="10.807470438113105"><ele>76.39999999999999</ele><time>2026-03-27T14:18:01Z</time></trkpt><trkpt lat="52.409267759972735" lon="10.807436137065078"><ele>76.6</ele><time>2026-03-27T14:18:02Z</time></trkpt><trkpt lat="52.4093854651921" lon="10.807367601410728"><ele>76.8</ele><time>2026-03-27T14:18:04Z</time></trkpt><trkpt lat="52.40949597700324" lon="10.807307177985976"><ele>77.0</ele><time>2026-03-27T14:18:06Z</time></trkpt><trkpt lat="52.409606131553694" lon="10.8072378305351"><ele>75.6</ele><time>2026-03-27T14:18:08Z</time></trkpt><trkpt lat="52.40971314905031" lon="10.807172644149011"><ele>74.2</ele><time>2026-03-27T14:18:10Z</time></trkpt><trkpt lat="52.409815517191745" lon="10.807112009904618"><ele>72.8</ele><time>2026-03-27T14:18:12Z</time></trkpt><trkpt lat="52.409913184602324" lon="10.807054051579929"><ele>71.4</ele><time>2026-03-27T14:18:14Z</time></trkpt><trkpt lat="52.410007218685394" lon="10.806995901223825"><ele>70.0</ele><time>2026-03-27T14:18:16Z</time></trkpt><trkpt lat="52.41010007765721" lon="10.806929654609412"><ele>70.0</ele><time>2026-03-27T14:18:18Z</time></trkpt><trkpt lat="52.41019829540234" lon="10.806886215748326"><ele>70.0</ele><time>2026-03-27T14:18:20Z</time></trkpt><trkpt lat="52.41028520436309" lon="10.806812702034456"><ele>70.0</ele><time>2026-03-27T14:18:22Z</time></trkpt><trkpt lat="52.410373318247075" lon="10.806768414704893"><ele>70.0</ele><time>2026-03-27T14:18:24Z</time></trkpt><trkpt lat="52.410450164614204" lon="10.806699576156216"><ele>70.0</ele><time>2026-03-27T14:18:26Z</time></trkpt><trkpt lat="52.41051890559855" lon="10.806642569880903"><ele>71.33333333333333</ele><time>2026-03-27T14:18:28Z</time></trkpt><trkpt lat="52.41060303639761" lon="10.806585319002428"><ele>72.66666666666666</ele><time>2026-03-27T14:18:30Z</time></trkpt><trkpt lat="52.41068167195792" lon="10.806534606796545"><ele>74.0</ele><time>2026-03-27T14:18:32Z</time></trkpt><trkpt lat="52.410762434040194" lon="10.80647596456632"><ele>75.33333333333333</ele><time>2026-03-27T14:18:34Z</time></trkpt><trkpt lat="52.41084435153813" lon="10.806416126246507"><ele>76.66666666666667</ele><time>2026-03-27T14:18:36Z</time></trkpt><trkpt lat="52.41092693467355" lon="10.806354375024977"><ele>78.0</ele><time>2026-03-27T14:18:38Z</time></trkpt><trkpt lat="52.41101195264837" lon="10.806275872458533"><ele>78.0</ele><time>2026-03-27T14:18:40Z</time></trkpt><trkpt lat="52.41108551033245" lon="10.806177904426555"><ele>78.0</ele><time>2026-03-27T14:18:42Z</time></trkpt><trkpt lat="52.41113808399123" lon="10.806058098584904"><ele>78.0</ele><time>2026-03-27T14:18:44Z</time></trkpt><trkpt lat="52.41116571745081" lon="10.805940560089864"><ele>78.0</ele><time>2026-03-27T14:18:46Z</time></trkpt><trkpt lat="52.41119040743288" lon="10.805803488125665"><ele>78.0</ele><time>2026-03-27T14:18:49Z</time></trkpt><trkpt lat="52.41121645975452" lon="10.80566580007425"><ele>78.0</ele><time>2026-03-27T14:18:52Z</time></trkpt><trkpt lat="52.41123566288547" lon="10.805565380066152"><ele>77.71428571428572</ele><time>2026-03-27T14:18:54Z</time></trkpt><trkpt lat="52.41125516487631" lon="10.8054633971774"><ele>77.42857142857142</ele><time>2026-03-27T14:18:56Z</time></trkpt><trkpt lat="52.41127371634626" lon="10.805363013170835"><ele>77.14285714285714</ele><time>2026-03-27T14:18:58Z</time></trkpt><trkpt lat="52.41128035778741" lon="10.805258363328628"><ele>76.85714285714286</ele><time>2026-03-27T14:19:00Z</time></trkpt><trkpt lat="52.411313128088956" lon="10.805147010659882"><ele>76.57142857142858</ele><time>2026-03-27T14:19:02Z</time></trkpt><trkpt lat="52.411322042518925" lon="10.805027746449175"><ele>76.28571428571428</ele><time>2026-03-27T14:19:04Z</time></trkpt><trkpt lat="52.41134166934028" lon="10.804905763375954"><ele>76.0</ele><time>2026-03-27T14:19:06Z</time></trkpt><trkpt lat="52.41136182814931" lon="10.804792162458867"><ele>76.0</ele><time>2026-03-27T14:19:08Z</time></trkpt><trkpt lat="52.411395474792954" lon="10.804700145489175"><ele>76.0</ele><time>2026-03-27T14:19:10Z</time></trkpt><trkpt lat="52.41142101285241" lon="10.804565497834881"><ele>76.0</ele><time>2026-03-27T14:19:13Z</time></trkpt><trkpt lat="52.41143111687992" lon="10.804433198662593"><ele>76.0</ele><time>2026-03-27T14:19:16Z</time></trkpt><trkpt lat="52.411456591372705" lon="10.804299380483119"><ele>76.0</ele><time>2026-03-27T14:19:18.999Z</time></trkpt><trkpt lat="52.41147813391794" lon="10.804198516015639"><ele>76.0</ele><time>2026-03-27T14:19:20.999Z</time></trkpt><trkpt lat="52.41150161207444" lon="10.804068362521152"><ele>75.66666666666666</ele><time>2026-03-27T14:19:22.999Z</time></trkpt><trkpt lat="52.41154140611818" lon="10.803944841788466"><ele>75.33333333333333</ele><time>2026-03-27T14:19:24.999Z</time></trkpt><trkpt lat="52.4115525438448" lon="10.803808152063059"><ele>75.0</ele><time>2026-03-27T14:19:26.999Z</time></trkpt><trkpt lat="52.41159220602719" lon="10.803683761488777"><ele>74.66666666666667</ele><time>2026-03-27T14:19:28.999Z</time></trkpt><trkpt lat="52.41161617676902" lon="10.803562054037354"><ele>74.33333333333334</ele><time>2026-03-27T14:19:30.999Z</time></trkpt><trkpt lat="52.41163106244543" lon="10.80342251443097"><ele>74.0</ele><time>2026-03-27T14:19:32.999Z</time></trkpt><trkpt lat="52.41166284277143" lon="10.803284034862267"><ele>73.83333333333334</ele><time>2026-03-27T14:19:34.999Z</time></trkpt><trkpt lat="52.4116899612186" lon="10.803146963036122"><ele>73.66666666666667</ele><time>2026-03-27T14:19:36.999Z</time></trkpt><trkpt lat="52.41171082987772" lon="10.803012694054162"><ele>73.5</ele><time>2026-03-27T14:19:38.999Z</time></trkpt><trkpt lat="52.41172389162008" lon="10.802884274369884"><ele>73.33333333333333</ele><time>2026-03-27T14:19:40.999Z</time></trkpt><trkpt lat="52.41174280448727" lon="10.802762331292968"><ele>73.16666666666666</ele><time>2026-03-27T14:19:42.999Z</time></trkpt><trkpt lat="52.41175743331725" lon="10.80264517639947"><ele>73.0</ele><time>2026-03-27T14:19:44.999Z</time></trkpt><trkpt lat="52.411774052448465" lon="10.802539127158497"><ele>73.0</ele><time>2026-03-27T14:19:46.999Z</time></trkpt><trkpt lat="52.41179738997443" lon="10.802393562327065"><ele>73.0</ele><time>2026-03-27T14:19:50Z</time></trkpt><trkpt lat="52.41181989225256" lon="10.802269298511202"><ele>73.0</ele><time>2026-03-27T14:19:52Z</time></trkpt><trkpt lat="52.411841405219725" lon="10.802136471292703"><ele>73.0</ele><time>2026-03-27T14:19:54Z</time></trkpt><trkpt lat="52.41186681268134" lon="10.802006663663036"><ele>73.0</ele><time>2026-03-27T14:19:56Z</time></trkpt><trkpt lat="52.41190820577215" lon="10.801888171487965"><ele>73.0</ele><time>2026-03-27T14:19:58Z</time></trkpt><trkpt lat="52.41194336634477" lon="10.801764971895198"><ele>73.8</ele><time>2026-03-27T14:20:00Z</time></trkpt><trkpt lat="52.41198619992028" lon="10.801652963569682"><ele>74.6</ele><time>2026-03-27T14:20:02Z</time></trkpt><trkpt lat="52.41205220254866" lon="10.801540589729912"><ele>75.4</ele><time>2026-03-27T14:20:04Z</time></trkpt><trkpt lat="52.412109397761995" lon="10.801408924684965"><ele>76.2</ele><time>2026-03-27T14:20:06Z</time></trkpt><trkpt lat="52.41216287667771" lon="10.801275343046473"><ele>77.0</ele><time>2026-03-27T14:20:08Z</time></trkpt><trkpt lat="52.41220025354343" lon="10.801130044974867"><ele>75.5</ele><time>2026-03-27T14:20:10Z</time></trkpt><trkpt lat="52.412220232961644" lon="10.80098003676155"><ele>74.0</ele><time>2026-03-27T14:20:12Z</time></trkpt><trkpt lat="52.412231069319745" lon="10.800825072749632"><ele>72.5</ele><time>2026-03-27T14:20:14Z</time></trkpt><trkpt lat="52.41223741800328" lon="10.800698042664632"><ele>71.0</ele><time>2026-03-27T14:20:16Z</time></trkpt><trkpt lat="52.412258837037484" lon="10.800575608967389"><ele>69.5</ele><time>2026-03-27T14:20:19Z</time></trkpt><trkpt lat="52.412250441123255" lon="10.800455739901384"><ele>68.0</ele><time>2026-03-27T14:20:24Z</time></trkpt><trkpt lat="52.41225662407109" lon="10.800342671254803"><ele>68.0</ele><time>2026-03-27T14:20:27Z</time></trkpt><trkpt lat="52.41226567271856" lon="10.800222787539154"><ele>68.0</ele><time>2026-03-27T14:20:29Z</time></trkpt><trkpt lat="52.41227103095419" lon="10.800103246892482"><ele>68.0</ele><time>2026-03-27T14:20:31Z</time></trkpt><trkpt lat="52.41228039825371" lon="10.799982306810872"><ele>68.0</ele><time>2026-03-27T14:20:33Z</time></trkpt><trkpt lat="52.412291951940595" lon="10.799852868449028"><ele>68.0</ele><time>2026-03-27T14:20:35Z</time></trkpt><trkpt lat="52.41230250898771" lon="10.799712183212067"><ele>68.0</ele><time>2026-03-27T14:20:37Z</time></trkpt><trkpt lat="52.41231673961066" lon="10.799587713993889"><ele>68.33333333333334</ele><time>2026-03-27T14:20:39Z</time></trkpt><trkpt lat="52.41233689371986" lon="10.799462139663103"><ele>68.66666666666667</ele><time>2026-03-27T14:20:41Z</time></trkpt><trkpt lat="52.41236561872896" lon="10.799326497489702"><ele>69.0</ele><time>2026-03-27T14:20:43Z</time></trkpt><trkpt lat="52.41239591534123" lon="10.799216338107895"><ele>69.33333333333333</ele><time>2026-03-27T14:20:45Z</time></trkpt><trkpt lat="52.4124246057756" lon="10.79911008619114"><ele>69.66666666666666</ele><time>2026-03-27T14:20:47Z</time></trkpt><trkpt lat="52.41245951660081" lon="10.799010573293897"><ele>70.0</ele><time>2026-03-27T14:20:49Z</time></trkpt><trkpt lat="52.41249464634312" lon="10.798876645661036"><ele>70.42857142857143</ele><time>2026-03-27T14:20:52Z</time></trkpt><trkpt lat="52.41253351856181" lon="10.798766580760462"><ele>70.85714285714286</ele><time>2026-03-27T14:20:55Z</time></trkpt><trkpt lat="52.412568398854866" lon="10.798653673963244"><ele>71.28571428571428</ele><time>2026-03-27T14:20:59Z</time></trkpt><trkpt lat="52.41251200395193" lon="10.798596647230978"><ele>71.71428571428572</ele><time>2026-03-27T14:21:04Z</time></trkpt><trkpt lat="52.412448244531205" lon="10.798547620240189"><ele>72.14285714285714</ele><time>2026-03-27T14:21:09Z</time></trkpt><trkpt lat="52.412372569598304" lon="10.798510497952924"><ele>72.57142857142857</ele><time>2026-03-27T14:21:13Z</time></trkpt><trkpt lat="52.41230382663807" lon="10.798487941410846"><ele>73.0</ele><time>2026-03-27T14:21:16Z</time></trkpt><trkpt lat="52.4122407704678" lon="10.79846184848824"><ele>73.16666666666666</ele><time>2026-03-27T14:21:19Z</time></trkpt><trkpt lat="52.41216106107842" lon="10.798441847427807"><ele>73.33333333333333</ele><time>2026-03-27T14:21:22Z</time></trkpt><trkpt lat="52.41208115511095" lon="10.798441652195423"><ele>73.5</ele><time>2026-03-27T14:21:25Z</time></trkpt><trkpt lat="52.412010499381196" lon="10.798454986065504"><ele>73.66666666666667</ele><time>2026-03-27T14:21:28Z</time></trkpt><trkpt lat="52.411933329954074" lon="10.798455494535196"><ele>73.83333333333334</ele><time>2026-03-27T14:21:30.999Z</time></trkpt><trkpt lat="52.41184318675056" lon="10.798460497476457"><ele>74.0</ele><time>2026-03-27T14:21:33.999Z</time></trkpt><trkpt lat="52.41175118364552" lon="10.798473307589491"><ele>74.66666666666667</ele><time>2026-03-27T14:21:36.999Z</time></trkpt><trkpt lat="52.41166231742702" lon="10.798479833691909"><ele>75.33333333333334</ele><time>2026-03-27T14:21:39.999Z</time></trkpt><trkpt lat="52.41157445270744" lon="10.798493343706896"><ele>76.0</ele><time>2026-03-27T14:21:42.999Z</time></trkpt><trkpt lat="52.411501314124855" lon="10.798496129173673"><ele>76.66666666666667</ele><time>2026-03-27T14:21:45.999Z</time></trkpt><trkpt lat="52.411423700562985" lon="10.798495104618459"><ele>77.33333333333333</ele><time>2026-03-27T14:21:48.999Z</time></trkpt><trkpt lat="52.411371724380636" lon="10.798414781282027"><ele>78.0</ele><time>2026-03-27T14:21:52.999Z</time></trkpt><trkpt lat="52.41135054383999" lon="10.798294846863257"><ele>78.0</ele><time>2026-03-27T14:21:58Z</time></trkpt><trkpt lat="52.41135176241945" lon="10.798153831250714"><ele>78.0</ele><time>2026-03-27T14:22:02Z</time></trkpt><trkpt lat="52.41134465552754" lon="10.798032546225743"><ele>78.0</ele><time>2026-03-27T14:22:06Z</time></trkpt><trkpt lat="52.4113376236143" lon="10.797927604410411"><ele>78.0</ele><time>2026-03-27T14:22:09Z</time></trkpt><trkpt lat="52.411331219908355" lon="10.797791976061331"><ele>78.0</ele><time>2026-03-27T14:22:13Z</time></trkpt><trkpt lat="52.41132204860112" lon="10.79768398864902"><ele>78.0</ele><time>2026-03-27T14:22:16Z</time></trkpt><trkpt lat="52.41132447819901" lon="10.797570854627818"><ele>78.0</ele><time>2026-03-27T14:22:19Z</time></trkpt><trkpt lat="52.41131617146015" lon="10.797432984900286"><ele>78.5</ele><time>2026-03-27T14:22:23Z</time></trkpt><trkpt lat="52.411308122443266" lon="10.797308562045027"><ele>79.0</ele><time>2026-03-27T14:22:28Z</time></trkpt><trkpt lat="52.411290008107514" lon="10.797191070393437"><ele>79.5</ele><time>2026-03-27T14:22:35Z</time></trkpt><trkpt lat="52.411286924690216" lon="10.797063030863711"><ele>80.0</ele><time>2026-03-27T14:22:40Z</time></trkpt><trkpt lat="52.41129258972577" lon="10.796933999159748"><ele>80.5</ele><time>2026-03-27T14:22:44Z</time></trkpt><trkpt lat="52.41129062150876" lon="10.796811298416447"><ele>81.0</ele><time>2026-03-27T14:22:48Z</time></trkpt><trkpt lat="52.41127189920917" lon="10.796687996028284"><ele>81.0</ele><time>2026-03-27T14:23:12Z</time></trkpt><trkpt lat="52.411272771837524" lon="10.796556947412535"><ele>81.0</ele><time>2026-03-27T14:23:16Z</time></trkpt><trkpt lat="52.411275075562564" lon="10.79643552044915"><ele>81.0</ele><time>2026-03-27T14:23:19Z</time></trkpt><trkpt lat="52.41126649946993" lon="10.796288475399487"><ele>81.0</ele><time>2026-03-27T14:23:22Z</time></trkpt><trkpt lat="52.41126850925621" lon="10.796176847395706"><ele>81.0</ele><time>2026-03-27T14:23:24Z</time></trkpt><trkpt lat="52.41126833031694" lon="10.796041778777122"><ele>81.0</ele><time>2026-03-27T14:23:27Z</time></trkpt><trkpt lat="52.41125806075183" lon="10.795895112244699"><ele>80.16666666666667</ele><time>2026-03-27T14:23:30Z</time></trkpt><trkpt lat="52.41125511689007" lon="10.795786073390248"><ele>79.33333333333333</ele><time>2026-03-27T14:23:32Z</time></trkpt><trkpt lat="52.411252477696415" lon="10.795654028194535"><ele>78.5</ele><time>2026-03-27T14:23:34Z</time></trkpt><trkpt lat="52.41124904409531" lon="10.795514569804777"><ele>77.66666666666666</ele><time>2026-03-27T14:23:36Z</time></trkpt><trkpt lat="52.41124678374775" lon="10.795397033878492"><ele>76.83333333333333</ele><time>2026-03-27T14:23:38Z</time></trkpt><trkpt lat="52.411246818048916" lon="10.795255127611991"><ele>76.0</ele><time>2026-03-27T14:23:40Z</time></trkpt><trkpt lat="52.4112427340552" lon="10.795116661900526"><ele>76.0</ele><time>2026-03-27T14:23:42Z</time></trkpt><trkpt lat="52.411228440250085" lon="10.794986045778256"><ele>76.0</ele><time>2026-03-27T14:23:44Z</time></trkpt><trkpt lat="52.411228909058465" lon="10.794857218705305"><ele>76.0</ele><time>2026-03-27T14:23:45.999Z</time></trkpt><trkpt lat="52.411224365368966" lon="10.794722274669104"><ele>76.0</ele><time>2026-03-27T14:23:47.999Z</time></trkpt><trkpt lat="52.41122405551805" lon="10.794593521371713"><ele>76.0</ele><time>2026-03-27T14:23:49.999Z</time></trkpt><trkpt lat="52.41122050623345" lon="10.794454930618077"><ele>76.0</ele><time>2026-03-27T14:23:51.999Z</time></trkpt><trkpt lat="52.411214418650474" lon="10.794323859651007"><ele>75.83333333333333</ele><time>2026-03-27T14:23:53.999Z</time></trkpt><trkpt lat="52.411211385119536" lon="10.794192926224872"><ele>75.66666666666666</ele><time>2026-03-27T14:23:55.999Z</time></trkpt><trkpt lat="52.41120127861864" lon="10.794050189462295"><ele>75.5</ele><time>2026-03-27T14:23:57.999Z</time></trkpt><trkpt lat="52.411248525019616" lon="10.793907977636557"><ele>75.33333333333333</ele><time>2026-03-27T14:23:59.999Z</time></trkpt><trkpt lat="52.411243927232036" lon="10.793768868744477"><ele>75.16666666666667</ele><time>2026-03-27T14:24:02Z</time></trkpt><trkpt lat="52.41124003548739" lon="10.793641253762209"><ele>75.0</ele><time>2026-03-27T14:24:04Z</time></trkpt><trkpt lat="52.41123728718567" lon="10.793510877087117"><ele>74.66666666666667</ele><time>2026-03-27T14:24:06Z</time></trkpt><trkpt lat="52.41123482959405" lon="10.793375520613049"><ele>74.33333333333333</ele><time>2026-03-27T14:24:08Z</time></trkpt><trkpt lat="52.41123253851934" lon="10.793241353302992"><ele>74.0</ele><time>2026-03-27T14:24:10Z</time></trkpt><trkpt lat="52.411230454956474" lon="10.793119337959752"><ele>73.66666666666666</ele><time>2026-03-27T14:24:12Z</time></trkpt><trkpt lat="52.4112281948651" lon="10.792986983142177"><ele>73.33333333333333</ele><time>2026-03-27T14:24:14Z</time></trkpt><trkpt lat="52.41122596848845" lon="10.792856592187599"><ele>73.0</ele><time>2026-03-27T14:24:16Z</time></trkpt><trkpt lat="52.41122165706634" lon="10.792723415321237"><ele>72.57142857142857</ele><time>2026-03-27T14:24:18Z</time></trkpt><trkpt lat="52.411216933015055" lon="10.792591844727129"><ele>72.14285714285714</ele><time>2026-03-27T14:24:20Z</time></trkpt><trkpt lat="52.41121140065215" lon="10.792459557324795"><ele>71.71428571428572</ele><time>2026-03-27T14:24:22Z</time></trkpt><trkpt lat="52.4112084431702" lon="10.792352050532728"><ele>71.28571428571428</ele><time>2026-03-27T14:24:24Z</time></trkpt><trkpt lat="52.41118706260854" lon="10.792245252400349"><ele>70.85714285714286</ele><time>2026-03-27T14:24:26Z</time></trkpt><trkpt lat="52.41117976110561" lon="10.79212350212806"><ele>70.42857142857143</ele><time>2026-03-27T14:24:28Z</time></trkpt><trkpt lat="52.411176158447184" lon="10.791997936615736"><ele>70.0</ele><time>2026-03-27T14:24:30Z</time></trkpt><trkpt lat="52.4111515238671" lon="10.791888186479587"><ele>70.42857142857143</ele><time>2026-03-27T14:24:32Z</time></trkpt><trkpt lat="52.41110924062607" lon="10.791790009537817"><ele>70.85714285714286</ele><time>2026-03-27T14:24:34Z</time></trkpt><trkpt lat="52.41105098985492" lon="10.791714458177395"><ele>71.28571428571428</ele><time>2026-03-27T14:24:36Z</time></trkpt><trkpt lat="52.410994580733465" lon="10.791651647504148"><ele>71.71428571428572</ele><time>2026-03-27T14:24:38Z</time></trkpt><trkpt lat="52.41093701472594" lon="10.79158563611792"><ele>72.14285714285714</ele><time>2026-03-27T14:24:40Z</time></trkpt><trkpt lat="52.41088243303565" lon="10.791533688413233"><ele>72.57142857142857</ele><time>2026-03-27T14:24:42Z</time></trkpt><trkpt lat="52.41081516667873" lon="10.791549229832968"><ele>73.0</ele><time>2026-03-27T14:24:44Z</time></trkpt><trkpt lat="52.4107293089012" lon="10.791537777672687"><ele>73.0</ele><time>2026-03-27T14:24:47Z</time></trkpt><trkpt lat="52.41066147849176" lon="10.79154707923081"><ele>73.0</ele><time>2026-03-27T14:24:49Z</time></trkpt><trkpt lat="52.41059308281913" lon="10.791544119951205"><ele>73.0</ele><time>2026-03-27T14:24:51Z</time></trkpt><trkpt lat="52.41051819436242" lon="10.791555829802277"><ele>73.0</ele><time>2026-03-27T14:24:53Z</time></trkpt><trkpt lat="52.410443135462664" lon="10.791556573372425"><ele>73.0</ele><time>2026-03-27T14:24:55Z</time></trkpt><trkpt lat="52.41036810909472" lon="10.791567832200611"><ele>73.0</ele><time>2026-03-27T14:24:57Z</time></trkpt><trkpt lat="52.410288922002515" lon="10.791591134752592"><ele>73.0</ele><time>2026-03-27T14:24:59Z</time></trkpt><trkpt lat="52.41020799545456" lon="10.791614625107625"><ele>73.5</ele><time>2026-03-27T14:25:01Z</time></trkpt><trkpt lat="52.410127646665764" lon="10.791633630283053"><ele>74.0</ele><time>2026-03-27T14:25:03Z</time></trkpt><trkpt lat="52.410048667565015" lon="10.791649825599947"><ele>74.5</ele><time>2026-03-27T14:25:05Z</time></trkpt><trkpt lat="52.40996366560303" lon="10.791675628620732"><ele>75.0</ele><time>2026-03-27T14:25:07Z</time></trkpt><trkpt lat="52.40987848404648" lon="10.791707334520565"><ele>75.5</ele><time>2026-03-27T14:25:09Z</time></trkpt><trkpt lat="52.40979549595164" lon="10.791718777421119"><ele>76.0</ele><time>2026-03-27T14:25:11Z</time></trkpt><trkpt lat="52.409710040125" lon="10.791701204532137"><ele>75.66666666666666</ele><time>2026-03-27T14:25:13Z</time></trkpt><trkpt lat="52.40963441454291" lon="10.791683944724815"><ele>75.33333333333333</ele><time>2026-03-27T14:25:15Z</time></trkpt><trkpt lat="52.40956300041888" lon="10.791664675451479"><ele>75.0</ele><time>2026-03-27T14:25:17Z</time></trkpt><trkpt lat="52.40948427465578" lon="10.79162207002375"><ele>74.66666666666667</ele><time>2026-03-27T14:25:19Z</time></trkpt><trkpt lat="52.40941710241618" lon="10.791575939368768"><ele>74.33333333333334</ele><time>2026-03-27T14:25:21Z</time></trkpt><trkpt lat="52.40935197697782" lon="10.791528017301987"><ele>74.0</ele><time>2026-03-27T14:25:23Z</time></trkpt><trkpt lat="52.409254349379346" lon="10.79148540562118"><ele>74.0</ele><time>2026-03-27T14:25:26Z</time></trkpt><trkpt lat="52.409176544352206" lon="10.79148360616306"><ele>74.0</ele><time>2026-03-27T14:25:28Z</time></trkpt><trkpt lat="52.409099957721736" lon="10.791431280294937"><ele>74.0</ele><time>2026-03-27T14:25:30Z</time></trkpt><trkpt lat="52.409043940997044" lon="10.791354702227956"><ele>74.0</ele><time>2026-03-27T14:25:32Z</time></trkpt><trkpt lat="52.4089755864599" lon="10.7912950294911"><ele>74.0</ele><time>2026-03-27T14:25:34Z</time></trkpt><trkpt lat="52.40891879213169" lon="10.791239682820276"><ele>74.0</ele><time>2026-03-27T14:25:36Z</time></trkpt><trkpt lat="52.40883782129137" lon="10.791198712902675"><ele>74.5</ele><time>2026-03-27T14:25:39Z</time></trkpt><trkpt lat="52.40876671028373" lon="10.791162612784763"><ele>75.0</ele><time>2026-03-27T14:25:42Z</time></trkpt><trkpt lat="52.40868865403974" lon="10.791125920945532"><ele>75.5</ele><time>2026-03-27T14:25:45Z</time></trkpt><trkpt lat="52.40861275891722" lon="10.79108121834557"><ele>76.0</ele><time>2026-03-27T14:25:48Z</time></trkpt><trkpt lat="52.40852465049154" lon="10.79112094756735"><ele>76.5</ele><time>2026-03-27T14:25:51Z</time></trkpt><trkpt lat="52.40844840158223" lon="10.791187892299027"><ele>77.0</ele><time>2026-03-27T14:25:54Z</time></trkpt><trkpt lat="52.40838346942313" lon="10.791246938113842"><ele>77.0</ele><time>2026-03-27T14:25:57Z</time></trkpt><trkpt lat="52.40833137331859" lon="10.791305888694572"><ele>77.0</ele><time>2026-03-27T14:26:00Z</time></trkpt><trkpt lat="52.408277496445876" lon="10.791392351143205"><ele>77.0</ele><time>2026-03-27T14:26:04Z</time></trkpt><trkpt lat="52.40824164068243" lon="10.791477726393087"><ele>77.0</ele><time>2026-03-27T14:26:08Z</time></trkpt><trkpt lat="52.408187345495016" lon="10.791583810753789"><ele>77.0</ele><time>2026-03-27T14:26:12Z</time></trkpt><trkpt lat="52.40813760791836" lon="10.791668975370044"><ele>77.0</ele><time>2026-03-27T14:26:16Z</time></trkpt><trkpt lat="52.40808864080338" lon="10.791741150506333"><ele>77.0</ele><time>2026-03-27T14:26:19Z</time></trkpt><trkpt lat="52.40802884906499" lon="10.79178370139267"><ele>77.33333333333334</ele><time>2026-03-27T14:26:22Z</time></trkpt><trkpt lat="52.40797287014488" lon="10.79183340110162"><ele>77.66666666666667</ele><time>2026-03-27T14:26:25Z</time></trkpt><trkpt lat="52.40790140457207" lon="10.791875317850682"><ele>78.0</ele><time>2026-03-27T14:26:29Z</time></trkpt><trkpt lat="52.40782511378417" lon="10.791913861634072"><ele>78.33333333333333</ele><time>2026-03-27T14:26:33Z</time></trkpt><trkpt lat="52.407748510296386" lon="10.791948036622209"><ele>78.66666666666666</ele><time>2026-03-27T14:26:37Z</time></trkpt><trkpt lat="52.40767461082542" lon="10.791992679450098"><ele>79.0</ele><time>2026-03-27T14:26:41Z</time></trkpt><trkpt lat="52.407599494596155" lon="10.792028047292806"><ele>80.0</ele><time>2026-03-27T14:26:45Z</time></trkpt><trkpt lat="52.407519409179535" lon="10.79206347632416"><ele>81.0</ele><time>2026-03-27T14:26:49Z</time></trkpt><trkpt lat="52.40744376201017" lon="10.792092967387813"><ele>82.0</ele><time>2026-03-27T14:26:53Z</time></trkpt><trkpt lat="52.40737354878101" lon="10.792133042747862"><ele>83.0</ele><time>2026-03-27T14:26:57Z</time></trkpt><trkpt lat="52.40731183698312" lon="10.792158364714505"><ele>84.0</ele><time>2026-03-27T14:27:00Z</time></trkpt><trkpt lat="52.407235946126264" lon="10.792197154082713"><ele>85.0</ele><time>2026-03-27T14:27:04Z</time></trkpt><trkpt lat="52.40716141854645" lon="10.79223524661313"><ele>85.71428571428572</ele><time>2026-03-27T14:27:09Z</time></trkpt><trkpt lat="52.407090947983946" lon="10.792272552130024"><ele>86.42857142857142</ele><time>2026-03-27T14:27:13Z</time></trkpt><trkpt lat="52.407026262508815" lon="10.792298441953328"><ele>87.14285714285714</ele><time>2026-03-27T14:27:22Z</time></trkpt><trkpt lat="52.4069585721021" lon="10.792335067221398"><ele>87.85714285714286</ele><time>2026-03-27T14:27:29Z</time></trkpt><trkpt lat="52.406895188991385" lon="10.792371594968458"><ele>88.57142857142858</ele><time>2026-03-27T14:27:36Z</time></trkpt><trkpt lat="52.406833233182496" lon="10.792406323645029"><ele>89.28571428571428</ele><time>2026-03-27T14:27:42Z</time></trkpt><trkpt lat="52.4067654313365" lon="10.79243970517616"><ele>90.0</ele><time>2026-03-27T14:27:48Z</time></trkpt><trkpt lat="52.40669943437255" lon="10.79247740050375"><ele>90.0</ele><time>2026-03-27T14:27:54Z</time></trkpt><trkpt lat="52.406626738543864" lon="10.79252347697582"><ele>90.0</ele><time>2026-03-27T14:28:06Z</time></trkpt><trkpt lat="52.40655364110893" lon="10.79255008143089"><ele>90.0</ele><time>2026-03-27T14:28:10Z</time></trkpt><trkpt lat="52.40648833835159" lon="10.792587009942746"><ele>90.0</ele><time>2026-03-27T14:28:14Z</time></trkpt><trkpt lat="52.40641307228201" lon="10.792633101659826"><ele>90.0</ele><time>2026-03-27T14:28:18Z</time></trkpt><trkpt lat="52.40633179704309" lon="10.792671051176903"><ele>90.0</ele><time>2026-03-27T14:28:22Z</time></trkpt><trkpt lat="52.40625490365765" lon="10.792716403391987"><ele>91.0</ele><time>2026-03-27T14:28:26Z</time></trkpt><trkpt lat="52.40618136737366" lon="10.792752710960572"><ele>92.0</ele><time>2026-03-27T14:28:30Z</time></trkpt><trkpt lat="52.40611342589208" lon="10.792788864602949"><ele>93.0</ele><time>2026-03-27T14:28:34Z</time></trkpt><trkpt lat="52.40604113462262" lon="10.792824701509371"><ele>94.0</ele><time>2026-03-27T14:28:38Z</time></trkpt><trkpt lat="52.40596656949424" lon="10.792863633194159"><ele>95.0</ele><time>2026-03-27T14:28:42Z</time></trkpt><trkpt lat="52.40590083962741" lon="10.792920009226624"><ele>96.0</ele><time>2026-03-27T14:28:46Z</time></trkpt><trkpt lat="52.405836444140576" lon="10.792943330290623"><ele>97.0</ele><time>2026-03-27T14:28:49Z</time></trkpt><trkpt lat="52.405775966790216" lon="10.792977253492994"><ele>97.00000000000001</ele><time>2026-03-27T14:28:52Z</time></trkpt><trkpt lat="52.40570113536016" lon="10.793018630176242"><ele>97.0</ele><time>2026-03-27T14:28:56Z</time></trkpt><trkpt lat="52.405626529514244" lon="10.793053417174184"><ele>97.0</ele><time>2026-03-27T14:29:00Z</time></trkpt><trkpt lat="52.40554662974942" lon="10.793092580859035"><ele>97.0</ele><time>2026-03-27T14:29:04Z</time></trkpt><trkpt lat="52.40547330089873" lon="10.793139356365383"><ele>97.00000000000001</ele><time>2026-03-27T14:29:08Z</time></trkpt><trkpt lat="52.405394445206674" lon="10.793177562974028"><ele>97.0</ele><time>2026-03-27T14:29:12Z</time></trkpt><trkpt lat="52.4053332599265" lon="10.7932022045168"><ele>97.42857142857143</ele><time>2026-03-27T14:29:15Z</time></trkpt><trkpt lat="52.405255296802856" lon="10.793245618184773"><ele>97.85714285714286</ele><time>2026-03-27T14:29:19Z</time></trkpt><trkpt lat="52.405180141274826" lon="10.793285060875718"><ele>98.28571428571429</ele><time>2026-03-27T14:29:23Z</time></trkpt><trkpt lat="52.405097199824894" lon="10.793324980602591"><ele>98.71428571428572</ele><time>2026-03-27T14:29:27Z</time></trkpt><trkpt lat="52.40503320262534" lon="10.793366629881147"><ele>99.14285714285714</ele><time>2026-03-27T14:29:30Z</time></trkpt><trkpt lat="52.40496912457836" lon="10.79339515366496"><ele>99.57142857142858</ele><time>2026-03-27T14:29:33Z</time></trkpt><trkpt lat="52.40490819950151" lon="10.793423277826493"><ele>100.0</ele><time>2026-03-27T14:29:36Z</time></trkpt><trkpt lat="52.40484911549527" lon="10.79346565526262"><ele>100.00000000000001</ele><time>2026-03-27T14:29:39Z</time></trkpt><trkpt lat="52.4047775618488" lon="10.793504135944362"><ele>100.0</ele><time>2026-03-27T14:29:43Z</time></trkpt><trkpt lat="52.4047077333375" lon="10.793541387623106"><ele>100.0</ele><time>2026-03-27T14:29:47Z</time></trkpt><trkpt lat="52.40464343731806" lon="10.79356552381812"><ele>100.0</ele><time>2026-03-27T14:29:50Z</time></trkpt><trkpt lat="52.40456951029583" lon="10.79360608876313"><ele>100.0</ele><time>2026-03-27T14:29:54Z</time></trkpt><trkpt lat="52.40450624558698" lon="10.79363869928105"><ele>100.00000000000001</ele><time>2026-03-27T14:29:57Z</time></trkpt><trkpt lat="52.40443124899264" lon="10.793680741746801"><ele>100.0</ele><time>2026-03-27T14:30:00Z</time></trkpt><trkpt lat="52.40435086971218" lon="10.79371775593656"><ele>100.57142857142858</ele><time>2026-03-27T14:30:03Z</time></trkpt><trkpt lat="52.40428070936094" lon="10.793751481234414"><ele>101.14285714285714</ele><time>2026-03-27T14:30:06Z</time></trkpt><trkpt lat="52.404212984067506" lon="10.79378933764029"><ele>101.71428571428572</ele><time>2026-03-27T14:30:09Z</time></trkpt><trkpt lat="52.404150226990915" lon="10.79382691355756"><ele>102.28571428571429</ele><time>2026-03-27T14:30:12Z</time></trkpt><trkpt lat="52.40406898636602" lon="10.793868610369257"><ele>102.85714285714286</ele><time>2026-03-27T14:30:16Z</time></trkpt><trkpt lat="52.40399539091231" lon="10.793903396534374"><ele>103.42857142857143</ele><time>2026-03-27T14:30:19Z</time></trkpt><trkpt lat="52.40393194730894" lon="10.793936110851657"><ele>104.0</ele><time>2026-03-27T14:30:22Z</time></trkpt><trkpt lat="52.40386985655811" lon="10.793964705825422"><ele>104.57142857142857</ele><time>2026-03-27T14:30:25Z</time></trkpt><trkpt lat="52.403809153571395" lon="10.793999868844578"><ele>105.14285714285715</ele><time>2026-03-27T14:30:28Z</time></trkpt><trkpt lat="52.40374706363103" lon="10.794028842345877"><ele>105.71428571428572</ele><time>2026-03-27T14:30:31Z</time></trkpt><trkpt lat="52.4036847884122" lon="10.794062743207695"><ele>106.28571428571428</ele><time>2026-03-27T14:30:34Z</time></trkpt><trkpt lat="52.403622634333004" lon="10.794093645708331"><ele>106.85714285714286</ele><time>2026-03-27T14:30:37Z</time></trkpt><trkpt lat="52.40354903924577" lon="10.794126843131655"><ele>107.42857142857143</ele><time>2026-03-27T14:30:40Z</time></trkpt><trkpt lat="52.403485517781775" lon="10.79415413502078"><ele>108.0</ele><time>2026-03-27T14:30:43Z</time></trkpt><trkpt lat="52.40342106782534" lon="10.794189705796164"><ele>108.0</ele><time>2026-03-27T14:30:46Z</time></trkpt><trkpt lat="52.403358225839156" lon="10.794221418284412"><ele>108.0</ele><time>2026-03-27T14:30:49Z</time></trkpt><trkpt lat="52.40328855678727" lon="10.794255440335967"><ele>108.0</ele><time>2026-03-27T14:30:52Z</time></trkpt><trkpt lat="52.4032271530922" lon="10.794288538890573"><ele>108.0</ele><time>2026-03-27T14:30:55Z</time></trkpt><trkpt lat="52.40315869023458" lon="10.794327241221797"><ele>108.0</ele><time>2026-03-27T14:30:58Z</time></trkpt><trkpt lat="52.40309048213526" lon="10.794359233356861"><ele>108.0</ele><time>2026-03-27T14:31:01Z</time></trkpt><trkpt lat="52.40302395179703" lon="10.794391489403253"><ele>108.0</ele><time>2026-03-27T14:31:04Z</time></trkpt><trkpt lat="52.40295503927234" lon="10.79441990798894"><ele>107.71428571428571</ele><time>2026-03-27T14:31:07Z</time></trkpt><trkpt lat="52.402888862845245" lon="10.79445318323148"><ele>107.42857142857142</ele><time>2026-03-27T14:31:10Z</time></trkpt><trkpt lat="52.402819788137286" lon="10.794488945360394"><ele>107.14285714285714</ele><time>2026-03-27T14:31:13Z</time></trkpt><trkpt lat="52.40274346130622" lon="10.794525067623507"><ele>106.85714285714286</ele><time>2026-03-27T14:31:16Z</time></trkpt><trkpt lat="52.4026738523244" lon="10.79455873572833"><ele>106.57142857142857</ele><time>2026-03-27T14:31:19Z</time></trkpt><trkpt lat="52.40261117256132" lon="10.794589593591802"><ele>106.28571428571429</ele><time>2026-03-27T14:31:22Z</time></trkpt><trkpt lat="52.40254999747534" lon="10.794625301213102"><ele>106.0</ele><time>2026-03-27T14:31:25Z</time></trkpt><trkpt lat="52.402485532511044" lon="10.794653329259527"><ele>106.00000000000001</ele><time>2026-03-27T14:31:28Z</time></trkpt><trkpt lat="52.402413024243174" lon="10.79468868251882"><ele>106.0</ele><time>2026-03-27T14:31:31Z</time></trkpt><trkpt lat="52.40232220525733" lon="10.794728212680932"><ele>106.0</ele><time>2026-03-27T14:31:34Z</time></trkpt><trkpt lat="52.40226120964553" lon="10.794765822410247"><ele>106.0</ele><time>2026-03-27T14:31:36Z</time></trkpt><trkpt lat="52.40219802527895" lon="10.794793121856435"><ele>106.00000000000001</ele><time>2026-03-27T14:31:38Z</time></trkpt><trkpt lat="52.402105421278144" lon="10.794818550589973"><ele>106.0</ele><time>2026-03-27T14:31:41Z</time></trkpt><trkpt lat="52.402029234042125" lon="10.794857660649946"><ele>105.50000000000001</ele><time>2026-03-27T14:31:43Z</time></trkpt><trkpt lat="52.401958005553695" lon="10.794897324103587"><ele>105.0</ele><time>2026-03-27T14:31:45Z</time></trkpt><trkpt lat="52.40189152901416" lon="10.794935809485244"><ele>104.5</ele><time>2026-03-27T14:31:47Z</time></trkpt><trkpt lat="52.401827830059304" lon="10.794978867860758"><ele>104.0</ele><time>2026-03-27T14:31:49Z</time></trkpt><trkpt lat="52.4017549587519" lon="10.794985527798628"><ele>103.50000000000001</ele><time>2026-03-27T14:31:51Z</time></trkpt><trkpt lat="52.40169923532004" lon="10.7950385305853"><ele>103.0</ele><time>2026-03-27T14:31:53Z</time></trkpt><trkpt lat="52.40163447129168" lon="10.794911950262463"><ele>103.00000000000001</ele><time>2026-03-27T14:31:56Z</time></trkpt><trkpt lat="52.40161251179919" lon="10.79476353604606"><ele>103.0</ele><time>2026-03-27T14:31:59Z</time></trkpt><trkpt lat="52.40157703618762" lon="10.794667594139725"><ele>103.0</ele><time>2026-03-27T14:32:01Z</time></trkpt><trkpt lat="52.401539199928386" lon="10.794522982717996"><ele>103.0</ele><time>2026-03-27T14:32:04Z</time></trkpt><trkpt lat="52.40152143173736" lon="10.794372664051526"><ele>103.00000000000001</ele><time>2026-03-27T14:32:07Z</time></trkpt><trkpt lat="52.40149609427022" lon="10.794263927578907"><ele>103.0</ele><time>2026-03-27T14:32:09Z</time></trkpt><trkpt lat="52.401454554100155" lon="10.794148626623228"><ele>103.14285714285714</ele><time>2026-03-27T14:32:12Z</time></trkpt><trkpt lat="52.401425392070436" lon="10.794030567182178"><ele>103.28571428571428</ele><time>2026-03-27T14:32:15Z</time></trkpt><trkpt lat="52.40139050512601" lon="10.793929490071589"><ele>103.42857142857142</ele><time>2026-03-27T14:32:18Z</time></trkpt><trkpt lat="52.401365507643895" lon="10.793828210596295"><ele>103.57142857142857</ele><time>2026-03-27T14:32:21Z</time></trkpt><trkpt lat="52.40133939430095" lon="10.793716036053882"><ele>103.71428571428572</ele><time>2026-03-27T14:32:24Z</time></trkpt><trkpt lat="52.401319239134025" lon="10.793593194525085"><ele>103.85714285714285</ele><time>2026-03-27T14:32:28Z</time></trkpt><trkpt lat="52.40126996455484" lon="10.79350417652059"><ele>104.0</ele><time>2026-03-27T14:32:31Z</time></trkpt><trkpt lat="52.40124196257041" lon="10.79337995032065"><ele>103.85714285714285</ele><time>2026-03-27T14:32:34Z</time></trkpt><trkpt lat="52.401227419093104" lon="10.793271088170252"><ele>103.71428571428572</ele><time>2026-03-27T14:32:37Z</time></trkpt><trkpt lat="52.40120711758295" lon="10.793167613363282"><ele>103.57142857142857</ele><time>2026-03-27T14:32:40Z</time></trkpt><trkpt lat="52.40118898618984" lon="10.793054208499061"><ele>103.42857142857142</ele><time>2026-03-27T14:32:43Z</time></trkpt><trkpt lat="52.40116338954705" lon="10.792934590982526"><ele>103.28571428571428</ele><time>2026-03-27T14:32:46Z</time></trkpt><trkpt lat="52.40114877912438" lon="10.792820988774775"><ele>103.14285714285714</ele><time>2026-03-27T14:32:49Z</time></trkpt><trkpt lat="52.40110142615934" lon="10.79270653866426"><ele>103.0</ele><time>2026-03-27T14:32:53Z</time></trkpt><trkpt lat="52.40107761246794" lon="10.79260224588411"><ele>102.99999999999999</ele><time>2026-03-27T14:32:56Z</time></trkpt><trkpt lat="52.40104907448004" lon="10.792499370867015"><ele>103.0</ele><time>2026-03-27T14:32:59Z</time></trkpt><trkpt lat="52.401015263095374" lon="10.792373500606443"><ele>103.0</ele><time>2026-03-27T14:33:03Z</time></trkpt><trkpt lat="52.40099607143946" lon="10.792259953518036"><ele>103.0</ele><time>2026-03-27T14:33:06Z</time></trkpt><trkpt lat="52.400968650083776" lon="10.792158407636778"><ele>103.0</ele><time>2026-03-27T14:33:09Z</time></trkpt><trkpt lat="52.40094591796589" lon="10.7920582795511"><ele>102.99999999999999</ele><time>2026-03-27T14:33:12Z</time></trkpt><trkpt lat="52.40091370552415" lon="10.791937063052828"><ele>103.0</ele><time>2026-03-27T14:33:16Z</time></trkpt><trkpt lat="52.400895326985136" lon="10.791835105564058"><ele>103.50000000000001</ele><time>2026-03-27T14:33:19Z</time></trkpt><trkpt lat="52.400872468359246" lon="10.791720068056911"><ele>104.0</ele><time>2026-03-27T14:33:22Z</time></trkpt><trkpt lat="52.400837129518" lon="10.791590266592806"><ele>104.5</ele><time>2026-03-27T14:33:25Z</time></trkpt><trkpt lat="52.400804309003924" lon="10.791458341630786"><ele>105.0</ele><time>2026-03-27T14:33:28Z</time></trkpt><trkpt lat="52.40077277294312" lon="10.791333910726832"><ele>105.50000000000001</ele><time>2026-03-27T14:33:31Z</time></trkpt><trkpt lat="52.40074266652155" lon="10.791199148694197"><ele>106.0</ele><time>2026-03-27T14:33:34Z</time></trkpt><trkpt lat="52.40071151050888" lon="10.79106712387313"><ele>106.33333333333334</ele><time>2026-03-27T14:33:37Z</time></trkpt><trkpt lat="52.40067584499499" lon="10.790939200521898"><ele>106.66666666666667</ele><time>2026-03-27T14:33:40Z</time></trkpt><trkpt lat="52.40065204848909" lon="10.790839061929146"><ele>107.0</ele><time>2026-03-27T14:33:42Z</time></trkpt><trkpt lat="52.40062819204452" lon="10.790734275498055"><ele>107.33333333333334</ele><time>2026-03-27T14:33:44Z</time></trkpt><trkpt lat="52.400600636164114" lon="10.790608589119229"><ele>107.66666666666667</ele><time>2026-03-27T14:33:47Z</time></trkpt><trkpt lat="52.40057373574384" lon="10.790473260816745"><ele>108.0</ele><time>2026-03-27T14:33:50Z</time></trkpt><trkpt lat="52.40054497075206" lon="10.790378363003128"><ele>108.0</ele><time>2026-03-27T14:33:52Z</time></trkpt><trkpt lat="52.40052494064433" lon="10.790272689677924"><ele>108.0</ele><time>2026-03-27T14:33:54Z</time></trkpt><trkpt lat="52.40049858422678" lon="10.790175068945125"><ele>108.0</ele><time>2026-03-27T14:33:56Z</time></trkpt><trkpt lat="52.40046807374139" lon="10.790059815335962"><ele>108.0</ele><time>2026-03-27T14:33:59Z</time></trkpt><trkpt lat="52.4004354388854" lon="10.789927236015153"><ele>108.0</ele><time>2026-03-27T14:34:02Z</time></trkpt><trkpt lat="52.400412906192976" lon="10.789829008893106"><ele>108.0</ele><time>2026-03-27T14:34:04Z</time></trkpt><trkpt lat="52.40037977578199" lon="10.789687470047172"><ele>107.85714285714286</ele><time>2026-03-27T14:34:07Z</time></trkpt><trkpt lat="52.400356318806324" lon="10.789588283437778"><ele>107.71428571428571</ele><time>2026-03-27T14:34:09Z</time></trkpt><trkpt lat="52.40033372679595" lon="10.789487870170696"><ele>107.57142857142858</ele><time>2026-03-27T14:34:11Z</time></trkpt><trkpt lat="52.4003125702434" lon="10.78938604495272"><ele>107.42857142857143</ele><time>2026-03-27T14:34:13Z</time></trkpt><trkpt lat="52.400289618807854" lon="10.789281890205991"><ele>107.28571428571429</ele><time>2026-03-27T14:34:15Z</time></trkpt><trkpt lat="52.400257283189056" lon="10.78914732073843"><ele>107.14285714285715</ele><time>2026-03-27T14:34:18Z</time></trkpt><trkpt lat="52.4002269546361" lon="10.78899830251759"><ele>107.0</ele><time>2026-03-27T14:34:21Z</time></trkpt><trkpt lat="52.40020035345837" lon="10.788899249098538"><ele>107.49999999999999</ele><time>2026-03-27T14:34:23Z</time></trkpt><trkpt lat="52.40017489178134" lon="10.788801694836314"><ele>108.0</ele><time>2026-03-27T14:34:25Z</time></trkpt><trkpt lat="52.40015002881059" lon="10.788671257314665"><ele>108.5</ele><time>2026-03-27T14:34:28Z</time></trkpt><trkpt lat="52.40011604124228" lon="10.788544084278055"><ele>109.0</ele><time>2026-03-27T14:34:31Z</time></trkpt><trkpt lat="52.40008635523966" lon="10.78842969722782"><ele>109.49999999999999</ele><time>2026-03-27T14:34:34Z</time></trkpt><trkpt lat="52.40005901664522" lon="10.788286070867139"><ele>110.0</ele><time>2026-03-27T14:34:37Z</time></trkpt><trkpt lat="52.40003671629442" lon="10.788187208441341"><ele>110.28571428571428</ele><time>2026-03-27T14:34:39Z</time></trkpt><trkpt lat="52.400015111102086" lon="10.788082096970982"><ele>110.57142857142857</ele><time>2026-03-27T14:34:41Z</time></trkpt><trkpt lat="52.39999047774951" lon="10.787971936598087"><ele>110.85714285714286</ele><time>2026-03-27T14:34:43Z</time></trkpt><trkpt lat="52.39996406323219" lon="10.787853326128836"><ele>111.14285714285714</ele><time>2026-03-27T14:34:45Z</time></trkpt><trkpt lat="52.39993556168438" lon="10.787737529326327"><ele>111.42857142857143</ele><time>2026-03-27T14:34:47Z</time></trkpt><trkpt lat="52.399912215518924" lon="10.787630584955313"><ele>111.71428571428571</ele><time>2026-03-27T14:34:49Z</time></trkpt><trkpt lat="52.3998857846583" lon="10.787536714152827"><ele>112.0</ele><time>2026-03-27T14:34:51Z</time></trkpt><trkpt lat="52.39986170126456" lon="10.787437675057435"><ele>112.16666666666667</ele><time>2026-03-27T14:34:53Z</time></trkpt><trkpt lat="52.39983888669265" lon="10.787326115618422"><ele>112.33333333333334</ele><time>2026-03-27T14:34:55Z</time></trkpt><trkpt lat="52.39980988379252" lon="10.787226223444483"><ele>112.5</ele><time>2026-03-27T14:34:57Z</time></trkpt><trkpt lat="52.399787726571965" lon="10.787117715833975"><ele>112.66666666666666</ele><time>2026-03-27T14:34:59Z</time></trkpt><trkpt lat="52.39976269380151" lon="10.786995528746477"><ele>112.83333333333333</ele><time>2026-03-27T14:35:01Z</time></trkpt><trkpt lat="52.399734930575896" lon="10.78686927611905"><ele>113.0</ele><time>2026-03-27T14:35:03Z</time></trkpt><trkpt lat="52.39970634506179" lon="10.78674696468981"><ele>113.0</ele><time>2026-03-27T14:35:05Z</time></trkpt><trkpt lat="52.39968003121949" lon="10.786633577527564"><ele>113.0</ele><time>2026-03-27T14:35:07Z</time></trkpt><trkpt lat="52.399654196452964" lon="10.786524819024129"><ele>113.0</ele><time>2026-03-27T14:35:09Z</time></trkpt><trkpt lat="52.39962891161967" lon="10.786424610834883"><ele>113.0</ele><time>2026-03-27T14:35:11Z</time></trkpt><trkpt lat="52.39960726974303" lon="10.786324699071503"><ele>113.0</ele><time>2026-03-27T14:35:13Z</time></trkpt><trkpt lat="52.39958445976218" lon="10.786222045303072"><ele>113.0</ele><time>2026-03-27T14:35:15Z</time></trkpt><trkpt lat="52.399559412339826" lon="10.786118771500343"><ele>113.0</ele><time>2026-03-27T14:35:17Z</time></trkpt><trkpt lat="52.39953292970448" lon="10.786018228116115"><ele>112.66666666666666</ele><time>2026-03-27T14:35:19Z</time></trkpt><trkpt lat="52.39952023770818" lon="10.785876260952465"><ele>112.33333333333333</ele><time>2026-03-27T14:35:22Z</time></trkpt><trkpt lat="52.39956380176083" lon="10.785793719164628"><ele>112.0</ele><time>2026-03-27T14:35:24Z</time></trkpt><trkpt lat="52.39963508734699" lon="10.78575175598334"><ele>111.66666666666666</ele><time>2026-03-27T14:35:26Z</time></trkpt><trkpt lat="52.399714227125166" lon="10.78570812939758"><ele>111.33333333333333</ele><time>2026-03-27T14:35:28Z</time></trkpt><trkpt lat="52.3998056347353" lon="10.785658730953543"><ele>111.0</ele><time>2026-03-27T14:35:30Z</time></trkpt><trkpt lat="52.399908378367265" lon="10.785611021463792"><ele>111.0</ele><time>2026-03-27T14:35:32Z</time></trkpt><trkpt lat="52.400018043641225" lon="10.785553735568277"><ele>111.0</ele><time>2026-03-27T14:35:34Z</time></trkpt><trkpt lat="52.400130276663305" lon="10.785497833087144"><ele>111.0</ele><time>2026-03-27T14:35:36Z</time></trkpt><trkpt lat="52.400236367382206" lon="10.785443918040265"><ele>111.0</ele><time>2026-03-27T14:35:38Z</time></trkpt><trkpt lat="52.400332279692485" lon="10.785390741501496"><ele>111.0</ele><time>2026-03-27T14:35:40Z</time></trkpt><trkpt lat="52.400439533216996" lon="10.785337675439573"><ele>110.66666666666667</ele><time>2026-03-27T14:35:42Z</time></trkpt><trkpt lat="52.400531058691655" lon="10.785287857451864"><ele>110.33333333333334</ele><time>2026-03-27T14:35:44Z</time></trkpt><trkpt lat="52.40061134650809" lon="10.785250682614475"><ele>110.0</ele><time>2026-03-27T14:35:46Z</time></trkpt><trkpt lat="52.40068993468343" lon="10.785208539284882"><ele>109.66666666666667</ele><time>2026-03-27T14:35:48Z</time></trkpt><trkpt lat="52.40076239906988" lon="10.785165064867934"><ele>109.33333333333334</ele><time>2026-03-27T14:35:50Z</time></trkpt><trkpt lat="52.40083674822289" lon="10.785127333538867"><ele>109.0</ele><time>2026-03-27T14:35:52Z</time></trkpt><trkpt lat="52.40090834968812" lon="10.785092793517693"><ele>108.83333333333334</ele><time>2026-03-27T14:35:54Z</time></trkpt><trkpt lat="52.4009969592817" lon="10.785031425422709"><ele>108.66666666666667</ele><time>2026-03-27T14:35:57Z</time></trkpt><trkpt lat="52.40107435519935" lon="10.785004468797803"><ele>108.5</ele><time>2026-03-27T14:35:59Z</time></trkpt><trkpt lat="52.401150479812024" lon="10.784972359802117"><ele>108.33333333333334</ele><time>2026-03-27T14:36:01Z</time></trkpt><trkpt lat="52.40122373755809" lon="10.7849390475364"><ele>108.16666666666667</ele><time>2026-03-27T14:36:03Z</time></trkpt><trkpt lat="52.401297079971506" lon="10.78487954808079"><ele>108.0</ele><time>2026-03-27T14:36:05Z</time></trkpt><trkpt lat="52.40138352220184" lon="10.784832117507825"><ele>107.0</ele><time>2026-03-27T14:36:07Z</time></trkpt><trkpt lat="52.40147040642199" lon="10.784786734971815"><ele>106.00000000000001</ele><time>2026-03-27T14:36:09Z</time></trkpt><trkpt lat="52.40156291621587" lon="10.784737567303528"><ele>105.0</ele><time>2026-03-27T14:36:11Z</time></trkpt><trkpt lat="52.40166771140025" lon="10.784681792235482"><ele>104.0</ele><time>2026-03-27T14:36:13Z</time></trkpt><trkpt lat="52.40177547043395" lon="10.784624635058316"><ele>103.0</ele><time>2026-03-27T14:36:15Z</time></trkpt><trkpt lat="52.40188435696056" lon="10.784569431292747"><ele>103.0</ele><time>2026-03-27T14:36:17Z</time></trkpt><trkpt lat="52.40194684601341" lon="10.784537970822896"><ele>103.0</ele><time>2026-03-27T14:36:18Z</time></trkpt><trkpt lat="52.40206533328017" lon="10.784476562931339"><ele>103.0</ele><time>2026-03-27T14:36:20Z</time></trkpt><trkpt lat="52.402179013094766" lon="10.784420926619768"><ele>103.0</ele><time>2026-03-27T14:36:22Z</time></trkpt><trkpt lat="52.402240218639236" lon="10.784387424915145"><ele>103.0</ele><time>2026-03-27T14:36:23Z</time></trkpt><trkpt lat="52.4023638159229" lon="10.784327128243785"><ele>102.0</ele><time>2026-03-27T14:36:25Z</time></trkpt><trkpt lat="52.402478626208705" lon="10.784269298656998"><ele>101.0</ele><time>2026-03-27T14:36:27Z</time></trkpt><trkpt lat="52.402585151678814" lon="10.78421549351458"><ele>100.0</ele><time>2026-03-27T14:36:29Z</time></trkpt><trkpt lat="52.40268376049137" lon="10.784167273978145"><ele>99.0</ele><time>2026-03-27T14:36:31Z</time></trkpt><trkpt lat="52.40277697243044" lon="10.784120343443192"><ele>98.0</ele><time>2026-03-27T14:36:33Z</time></trkpt><trkpt lat="52.40286127467178" lon="10.784080090729825"><ele>98.0</ele><time>2026-03-27T14:36:35Z</time></trkpt><trkpt lat="52.402949836680996" lon="10.78404666252365"><ele>98.0</ele><time>2026-03-27T14:36:37Z</time></trkpt><trkpt lat="52.40302997399549" lon="10.78401657153304"><ele>98.0</ele><time>2026-03-27T14:36:39Z</time></trkpt><trkpt lat="52.40308646478017" lon="10.783953659648663"><ele>98.0</ele><time>2026-03-27T14:36:44Z</time></trkpt><trkpt lat="52.40302762960817" lon="10.783603386216441"><ele>96.4</ele><time>2026-03-27T14:36:45Z</time></trkpt><trkpt lat="52.40302037268368" lon="10.783459388878995"><ele>94.80000000000001</ele><time>2026-03-27T14:36:47Z</time></trkpt><trkpt lat="52.4030280642613" lon="10.783306776916067"><ele>93.2</ele><time>2026-03-27T14:36:49Z</time></trkpt><trkpt lat="52.4030457506908" lon="10.783150265385308"><ele>91.6</ele><time>2026-03-27T14:36:51Z</time></trkpt><trkpt lat="52.403047989216496" lon="10.782997302220085"><ele>90.0</ele><time>2026-03-27T14:36:53Z</time></trkpt><trkpt lat="52.40304177666304" lon="10.782834753289087"><ele>90.4</ele><time>2026-03-27T14:36:55Z</time></trkpt><trkpt lat="52.403037561406165" lon="10.782674205882053"><ele>90.8</ele><time>2026-03-27T14:36:57Z</time></trkpt><trkpt lat="52.40303731888887" lon="10.782520996155917"><ele>91.19999999999999</ele><time>2026-03-27T14:36:59Z</time></trkpt><trkpt lat="52.403033350837426" lon="10.782365429158112"><ele>91.6</ele><time>2026-03-27T14:37:01Z</time></trkpt><trkpt lat="52.403024366403834" lon="10.782219939100534"><ele>92.0</ele><time>2026-03-27T14:37:03Z</time></trkpt><trkpt lat="52.40299688820141" lon="10.7820907605348"><ele>92.0</ele><time>2026-03-27T14:37:05Z</time></trkpt><trkpt lat="52.40300474143725" lon="10.781967857944188"><ele>92.0</ele><time>2026-03-27T14:37:07Z</time></trkpt><trkpt lat="52.40301124272615" lon="10.781833502873255"><ele>92.0</ele><time>2026-03-27T14:37:09Z</time></trkpt><trkpt lat="52.40299331462006" lon="10.78167266440334"><ele>92.0</ele><time>2026-03-27T14:37:11Z</time></trkpt><trkpt lat="52.40297708051667" lon="10.781545608913317"><ele>92.0</ele><time>2026-03-27T14:37:13Z</time></trkpt><trkpt lat="52.40296160327383" lon="10.781414150396946"><ele>92.0</ele><time>2026-03-27T14:37:15Z</time></trkpt><trkpt lat="52.402946775817846" lon="10.781294416812212"><ele>92.33333333333334</ele><time>2026-03-27T14:37:17Z</time></trkpt><trkpt lat="52.40291889389173" lon="10.781169789202243"><ele>92.66666666666667</ele><time>2026-03-27T14:37:19Z</time></trkpt><trkpt lat="52.40289354569342" lon="10.781049378026205"><ele>93.0</ele><time>2026-03-27T14:37:21Z</time></trkpt><trkpt lat="52.402853598607344" lon="10.780929931135933"><ele>93.33333333333333</ele><time>2026-03-27T14:37:23Z</time></trkpt><trkpt lat="52.40282490925448" lon="10.78080693282704"><ele>93.66666666666666</ele><time>2026-03-27T14:37:25Z</time></trkpt><trkpt lat="52.40277685434707" lon="10.780669214921314"><ele>94.0</ele><time>2026-03-27T14:37:27Z</time></trkpt><trkpt lat="52.40274216937762" lon="10.780566451924562"><ele>94.0</ele><time>2026-03-27T14:37:29Z</time></trkpt><trkpt lat="52.402709107604764" lon="10.780456849143768"><ele>94.0</ele><time>2026-03-27T14:37:31Z</time></trkpt><trkpt lat="52.402678634758125" lon="10.780336423543458"><ele>94.0</ele><time>2026-03-27T14:37:33Z</time></trkpt><trkpt lat="52.4026491231847" lon="10.780218525146264"><ele>94.0</ele><time>2026-03-27T14:37:35Z</time></trkpt><trkpt lat="52.40262144837606" lon="10.78010343657283"><ele>94.0</ele><time>2026-03-27T14:37:37Z</time></trkpt><trkpt lat="52.402614552641026" lon="10.779991336664647"><ele>94.0</ele><time>2026-03-27T14:37:39Z</time></trkpt><trkpt lat="52.4026328781159" lon="10.77988222378086"><ele>94.0</ele><time>2026-03-27T14:37:41Z</time></trkpt><trkpt lat="52.40265586694221" lon="10.779765310322569"><ele>94.0</ele><time>2026-03-27T14:37:43Z</time></trkpt><trkpt lat="52.40268784126929" lon="10.779659935227432"><ele>94.0</ele><time>2026-03-27T14:37:45Z</time></trkpt><trkpt lat="52.40273721589899" lon="10.779544490801475"><ele>94.0</ele><time>2026-03-27T14:37:47Z</time></trkpt><trkpt lat="52.402776933794" lon="10.779413710253698"><ele>94.0</ele><time>2026-03-27T14:37:49Z</time></trkpt><trkpt lat="52.40279586510965" lon="10.779268670533263"><ele>94.0</ele><time>2026-03-27T14:37:51Z</time></trkpt><trkpt lat="52.40277980757718" lon="10.779144857010854"><ele>94.0</ele><time>2026-03-27T14:37:53Z</time></trkpt><trkpt lat="52.402758302943354" lon="10.779007815808841"><ele>94.33333333333333</ele><time>2026-03-27T14:37:55Z</time></trkpt><trkpt lat="52.402739809154184" lon="10.778875392058483"><ele>94.66666666666666</ele><time>2026-03-27T14:37:57Z</time></trkpt><trkpt lat="52.4027192847662" lon="10.778757152360075"><ele>95.0</ele><time>2026-03-27T14:37:59Z</time></trkpt><trkpt lat="52.40270053188278" lon="10.778632810959987"><ele>95.33333333333333</ele><time>2026-03-27T14:38:01Z</time></trkpt><trkpt lat="52.40267542730833" lon="10.778514783994636"><ele>95.66666666666667</ele><time>2026-03-27T14:38:03Z</time></trkpt><trkpt lat="52.40265419234572" lon="10.778413075119728"><ele>96.0</ele><time>2026-03-27T14:38:05Z</time></trkpt><trkpt lat="52.40263625415629" lon="10.778256864718777"><ele>95.99999999999999</ele><time>2026-03-27T14:38:08Z</time></trkpt><trkpt lat="52.40260602815464" lon="10.778135410477516"><ele>96.0</ele><time>2026-03-27T14:38:10Z</time></trkpt><trkpt lat="52.40258967127893" lon="10.77803391869423"><ele>96.0</ele><time>2026-03-27T14:38:12Z</time></trkpt><trkpt lat="52.402559799406866" lon="10.77790971383503"><ele>96.0</ele><time>2026-03-27T14:38:14Z</time></trkpt><trkpt lat="52.4025372468278" lon="10.777783196527418"><ele>96.0</ele><time>2026-03-27T14:38:16Z</time></trkpt><trkpt lat="52.402518474623676" lon="10.777679242793434"><ele>95.99999999999999</ele><time>2026-03-27T14:38:18Z</time></trkpt><trkpt lat="52.40249531352572" lon="10.777567875144225"><ele>96.0</ele><time>2026-03-27T14:38:21Z</time></trkpt><trkpt lat="52.402468917836565" lon="10.777444625800923"><ele>95.33333333333333</ele><time>2026-03-27T14:38:25Z</time></trkpt><trkpt lat="52.40249725167956" lon="10.777326596883633"><ele>94.66666666666667</ele><time>2026-03-27T14:38:29Z</time></trkpt><trkpt lat="52.402585290537495" lon="10.77728374183842"><ele>94.0</ele><time>2026-03-27T14:38:32Z</time></trkpt><trkpt lat="52.4026531280273" lon="10.777251155112078"><ele>93.33333333333334</ele><time>2026-03-27T14:38:34Z</time></trkpt><trkpt lat="52.4027345680773" lon="10.777210450983334"><ele>92.66666666666667</ele><time>2026-03-27T14:38:36Z</time></trkpt><trkpt lat="52.402815179466" lon="10.777187773348379"><ele>92.0</ele><time>2026-03-27T14:38:38Z</time></trkpt><trkpt lat="52.402895089040754" lon="10.777150581027582"><ele>92.0</ele><time>2026-03-27T14:38:40Z</time></trkpt><trkpt lat="52.40296615778244" lon="10.777106786684076"><ele>92.0</ele><time>2026-03-27T14:38:42Z</time></trkpt><trkpt lat="52.40301828733597" lon="10.77702779247647"><ele>92.0</ele><time>2026-03-27T14:38:44Z</time></trkpt><trkpt lat="52.403021172254206" lon="10.776904086244476"><ele>92.0</ele><time>2026-03-27T14:38:46Z</time></trkpt><trkpt lat="52.40301457597266" lon="10.77676318445402"><ele>92.0</ele><time>2026-03-27T14:38:49Z</time></trkpt><trkpt lat="52.40300960294329" lon="10.776622597099712"><ele>92.0</ele><time>2026-03-27T14:38:52Z</time></trkpt><trkpt lat="52.4030086605701" lon="10.776499319543706"><ele>81.0</ele><time>2026-03-27T14:38:55Z</time></trkpt><trkpt lat="52.40300453384219" lon="10.776380364861517"><ele>81.0</ele><time>2026-03-27T14:38:58Z</time></trkpt><trkpt lat="52.403003078786526" lon="10.776256095889567"><ele>81.0</ele><time>2026-03-27T14:39:02Z</time></trkpt></trkseg></trk></gpx>